<?xml version="1.0" encoding="UTF-8" standalone="no" ?>
<gpx xmlns="http://www.topografix.com/GPX/1/1" xmlns:xsi="http://www.w3.org/2001/XMLSchema-instance" xsi:schemaLocation="http://www.topografix.com/GPX/1/1 http://www.topografix.com/GPX/1/1/gpx.xsd" version="1.1" creator="VisuGPX - https://www.visugpx.com">
  <metadata>
    <name>TREK RCY GR34 2022 J3  Audierne sortie du soir</name>
    <desc><![CDATA[Journée 3 du périple 
Sortie pour rejoindre le restau depuis le gite]]></desc>
  </metadata>
  <trk>
    <name><![CDATA[SityTrail - TREK RCY GR34 2022 Audierne sortie du soir]]></name>
    <desc><![CDATA[Journée 3 du périple 
Sortie pour rejoindre le restau depuis le gite]]></desc>
    <trkseg>
      <trkpt lat="48.02479" lon="-4.5284">
        <ele>43</ele>
        <time>2022-06-03T15:56:39.469Z</time>
      </trkpt>
      <trkpt lat="48.02475" lon="-4.52846">
        <ele>43</ele>
        <time>2022-06-03T15:58:25.472Z</time>
      </trkpt>
      <trkpt lat="48.02472" lon="-4.52849">
        <ele>42</ele>
        <time>2022-06-03T15:58:29.492Z</time>
      </trkpt>
      <trkpt lat="48.02468" lon="-4.52851">
        <ele>42</ele>
        <time>2022-06-03T15:58:33.515Z</time>
      </trkpt>
      <trkpt lat="48.02465" lon="-4.52853">
        <ele>42</ele>
        <time>2022-06-03T15:58:38.466Z</time>
      </trkpt>
      <trkpt lat="48.02463" lon="-4.52854">
        <ele>42</ele>
        <time>2022-06-03T15:58:42.517Z</time>
      </trkpt>
      <trkpt lat="48.02463" lon="-4.52858">
        <ele>42</ele>
        <time>2022-06-03T15:59:58.502Z</time>
      </trkpt>
      <trkpt lat="48.02463" lon="-4.52858">
        <ele>42</ele>
        <time>2022-06-03T16:00:02.488Z</time>
      </trkpt>
      <trkpt lat="48.02462" lon="-4.52862">
        <ele>42</ele>
        <time>2022-06-03T16:00:06.530Z</time>
      </trkpt>
      <trkpt lat="48.02459" lon="-4.52864">
        <ele>42</ele>
        <time>2022-06-03T16:00:11.518Z</time>
      </trkpt>
      <trkpt lat="48.02454" lon="-4.52866">
        <ele>43</ele>
        <time>2022-06-03T16:00:16.523Z</time>
      </trkpt>
      <trkpt lat="48.02451" lon="-4.52871">
        <ele>43</ele>
        <time>2022-06-03T16:00:21.500Z</time>
      </trkpt>
      <trkpt lat="48.02449" lon="-4.52876">
        <ele>42</ele>
        <time>2022-06-03T16:00:25.512Z</time>
      </trkpt>
      <trkpt lat="48.02446" lon="-4.52879">
        <ele>42</ele>
        <time>2022-06-03T16:00:29.514Z</time>
      </trkpt>
      <trkpt lat="48.02443" lon="-4.52884">
        <ele>42</ele>
        <time>2022-06-03T16:00:33.545Z</time>
      </trkpt>
      <trkpt lat="48.0244" lon="-4.52888">
        <ele>42</ele>
        <time>2022-06-03T16:00:38.518Z</time>
      </trkpt>
      <trkpt lat="48.02437" lon="-4.52891">
        <ele>42</ele>
        <time>2022-06-03T16:00:42.513Z</time>
      </trkpt>
      <trkpt lat="48.02433" lon="-4.52894">
        <ele>42</ele>
        <time>2022-06-03T16:00:46.531Z</time>
      </trkpt>
      <trkpt lat="48.0243" lon="-4.52899">
        <ele>42</ele>
        <time>2022-06-03T16:00:51.522Z</time>
      </trkpt>
      <trkpt lat="48.02426" lon="-4.52905">
        <ele>41</ele>
        <time>2022-06-03T16:00:56.506Z</time>
      </trkpt>
      <trkpt lat="48.02424" lon="-4.5291">
        <ele>41</ele>
        <time>2022-06-03T16:01:01.514Z</time>
      </trkpt>
      <trkpt lat="48.02424" lon="-4.52915">
        <ele>41</ele>
        <time>2022-06-03T16:01:05.529Z</time>
      </trkpt>
      <trkpt lat="48.02426" lon="-4.5292">
        <ele>41</ele>
        <time>2022-06-03T16:01:10.530Z</time>
      </trkpt>
      <trkpt lat="48.02428" lon="-4.52924">
        <ele>41</ele>
        <time>2022-06-03T16:01:15.524Z</time>
      </trkpt>
      <trkpt lat="48.02429" lon="-4.52926">
        <ele>41</ele>
        <time>2022-06-03T16:01:19.529Z</time>
      </trkpt>
      <trkpt lat="48.0243" lon="-4.52929">
        <ele>41</ele>
        <time>2022-06-03T16:01:24.496Z</time>
      </trkpt>
      <trkpt lat="48.02431" lon="-4.52932">
        <ele>41</ele>
        <time>2022-06-03T16:01:28.528Z</time>
      </trkpt>
      <trkpt lat="48.02433" lon="-4.52937">
        <ele>41</ele>
        <time>2022-06-03T16:01:33.522Z</time>
      </trkpt>
      <trkpt lat="48.02435" lon="-4.5294">
        <ele>41</ele>
        <time>2022-06-03T16:01:38.530Z</time>
      </trkpt>
      <trkpt lat="48.02437" lon="-4.52945">
        <ele>41</ele>
        <time>2022-06-03T16:01:43.514Z</time>
      </trkpt>
      <trkpt lat="48.0244" lon="-4.52951">
        <ele>41</ele>
        <time>2022-06-03T16:01:47.511Z</time>
      </trkpt>
      <trkpt lat="48.02444" lon="-4.52959">
        <ele>41</ele>
        <time>2022-06-03T16:01:52.527Z</time>
      </trkpt>
      <trkpt lat="48.02447" lon="-4.52965">
        <ele>41</ele>
        <time>2022-06-03T16:01:57.517Z</time>
      </trkpt>
      <trkpt lat="48.0245" lon="-4.5297">
        <ele>41</ele>
        <time>2022-06-03T16:02:02.507Z</time>
      </trkpt>
      <trkpt lat="48.02452" lon="-4.52974">
        <ele>41</ele>
        <time>2022-06-03T16:02:06.545Z</time>
      </trkpt>
      <trkpt lat="48.02455" lon="-4.5298">
        <ele>41</ele>
        <time>2022-06-03T16:02:11.516Z</time>
      </trkpt>
      <trkpt lat="48.02458" lon="-4.52986">
        <ele>41</ele>
        <time>2022-06-03T16:02:15.515Z</time>
      </trkpt>
      <trkpt lat="48.02461" lon="-4.5299">
        <ele>40</ele>
        <time>2022-06-03T16:02:20.535Z</time>
      </trkpt>
      <trkpt lat="48.02464" lon="-4.52995">
        <ele>40</ele>
        <time>2022-06-03T16:02:25.502Z</time>
      </trkpt>
      <trkpt lat="48.02466" lon="-4.52998">
        <ele>40</ele>
        <time>2022-06-03T16:02:29.520Z</time>
      </trkpt>
      <trkpt lat="48.02468" lon="-4.53004">
        <ele>40</ele>
        <time>2022-06-03T16:02:34.526Z</time>
      </trkpt>
      <trkpt lat="48.02468" lon="-4.5301">
        <ele>40</ele>
        <time>2022-06-03T16:02:39.524Z</time>
      </trkpt>
      <trkpt lat="48.02469" lon="-4.53014">
        <ele>40</ele>
        <time>2022-06-03T16:02:43.541Z</time>
      </trkpt>
      <trkpt lat="48.02471" lon="-4.53019">
        <ele>40</ele>
        <time>2022-06-03T16:02:48.546Z</time>
      </trkpt>
      <trkpt lat="48.02473" lon="-4.53024">
        <ele>40</ele>
        <time>2022-06-03T16:02:53.524Z</time>
      </trkpt>
      <trkpt lat="48.02475" lon="-4.53029">
        <ele>40</ele>
        <time>2022-06-03T16:02:58.538Z</time>
      </trkpt>
      <trkpt lat="48.02477" lon="-4.53032">
        <ele>40</ele>
        <time>2022-06-03T16:03:03.513Z</time>
      </trkpt>
      <trkpt lat="48.0248" lon="-4.53035">
        <ele>40</ele>
        <time>2022-06-03T16:03:08.502Z</time>
      </trkpt>
      <trkpt lat="48.0248" lon="-4.5304">
        <ele>40</ele>
        <time>2022-06-03T16:03:12.507Z</time>
      </trkpt>
      <trkpt lat="48.02481" lon="-4.53044">
        <ele>40</ele>
        <time>2022-06-03T16:03:16.514Z</time>
      </trkpt>
      <trkpt lat="48.02485" lon="-4.53051">
        <ele>40</ele>
        <time>2022-06-03T16:03:21.531Z</time>
      </trkpt>
      <trkpt lat="48.02488" lon="-4.53055">
        <ele>36</ele>
        <time>2022-06-03T16:03:26.534Z</time>
      </trkpt>
      <trkpt lat="48.02493" lon="-4.53054">
        <ele>36</ele>
        <time>2022-06-03T16:03:36.542Z</time>
      </trkpt>
      <trkpt lat="48.02495" lon="-4.53054">
        <ele>36</ele>
        <time>2022-06-03T16:03:41.519Z</time>
      </trkpt>
      <trkpt lat="48.02496" lon="-4.53056">
        <ele>36</ele>
        <time>2022-06-03T16:03:46.490Z</time>
      </trkpt>
      <trkpt lat="48.02499" lon="-4.53059">
        <ele>36</ele>
        <time>2022-06-03T16:03:50.507Z</time>
      </trkpt>
      <trkpt lat="48.02501" lon="-4.53061">
        <ele>36</ele>
        <time>2022-06-03T16:03:55.520Z</time>
      </trkpt>
      <trkpt lat="48.02504" lon="-4.53062">
        <ele>36</ele>
        <time>2022-06-03T16:04:05.512Z</time>
      </trkpt>
      <trkpt lat="48.02506" lon="-4.53067">
        <ele>36</ele>
        <time>2022-06-03T16:04:10.522Z</time>
      </trkpt>
      <trkpt lat="48.02508" lon="-4.53067">
        <ele>36</ele>
        <time>2022-06-03T16:04:15.484Z</time>
      </trkpt>
      <trkpt lat="48.02509" lon="-4.53069">
        <ele>36</ele>
        <time>2022-06-03T16:04:19.517Z</time>
      </trkpt>
      <trkpt lat="48.0251" lon="-4.53071">
        <ele>35</ele>
        <time>2022-06-03T16:04:24.509Z</time>
      </trkpt>
      <trkpt lat="48.02514" lon="-4.53071">
        <ele>35</ele>
        <time>2022-06-03T16:04:29.508Z</time>
      </trkpt>
      <trkpt lat="48.02516" lon="-4.5307">
        <ele>28</ele>
        <time>2022-06-03T16:04:33.515Z</time>
      </trkpt>
      <trkpt lat="48.02518" lon="-4.53071">
        <ele>28</ele>
        <time>2022-06-03T16:04:38.511Z</time>
      </trkpt>
      <trkpt lat="48.0252" lon="-4.53072">
        <ele>28</ele>
        <time>2022-06-03T16:04:42.512Z</time>
      </trkpt>
      <trkpt lat="48.02524" lon="-4.53073">
        <ele>28</ele>
        <time>2022-06-03T16:04:47.521Z</time>
      </trkpt>
      <trkpt lat="48.02527" lon="-4.53081">
        <ele>28</ele>
        <time>2022-06-03T16:04:52.530Z</time>
      </trkpt>
      <trkpt lat="48.02527" lon="-4.53088">
        <ele>28</ele>
        <time>2022-06-03T16:04:57.513Z</time>
      </trkpt>
      <trkpt lat="48.02526" lon="-4.53094">
        <ele>28</ele>
        <time>2022-06-03T16:05:02.490Z</time>
      </trkpt>
      <trkpt lat="48.02526" lon="-4.53099">
        <ele>26</ele>
        <time>2022-06-03T16:05:06.496Z</time>
      </trkpt>
      <trkpt lat="48.02526" lon="-4.53106">
        <ele>26</ele>
        <time>2022-06-03T16:05:10.511Z</time>
      </trkpt>
      <trkpt lat="48.02525" lon="-4.53113">
        <ele>26</ele>
        <time>2022-06-03T16:05:15.514Z</time>
      </trkpt>
      <trkpt lat="48.02523" lon="-4.53119">
        <ele>26</ele>
        <time>2022-06-03T16:05:20.515Z</time>
      </trkpt>
      <trkpt lat="48.02521" lon="-4.53126">
        <ele>23</ele>
        <time>2022-06-03T16:05:25.512Z</time>
      </trkpt>
      <trkpt lat="48.0252" lon="-4.53131">
        <ele>23</ele>
        <time>2022-06-03T16:05:29.505Z</time>
      </trkpt>
      <trkpt lat="48.02517" lon="-4.53138">
        <ele>23</ele>
        <time>2022-06-03T16:05:34.535Z</time>
      </trkpt>
      <trkpt lat="48.02515" lon="-4.53146">
        <ele>23</ele>
        <time>2022-06-03T16:05:39.520Z</time>
      </trkpt>
      <trkpt lat="48.02513" lon="-4.53152">
        <ele>27</ele>
        <time>2022-06-03T16:05:43.529Z</time>
      </trkpt>
      <trkpt lat="48.0251" lon="-4.53161">
        <ele>22</ele>
        <time>2022-06-03T16:05:48.544Z</time>
      </trkpt>
      <trkpt lat="48.02508" lon="-4.53169">
        <ele>22</ele>
        <time>2022-06-03T16:05:53.512Z</time>
      </trkpt>
      <trkpt lat="48.02506" lon="-4.53176">
        <ele>22</ele>
        <time>2022-06-03T16:05:58.509Z</time>
      </trkpt>
      <trkpt lat="48.02502" lon="-4.53181">
        <ele>17</ele>
        <time>2022-06-03T16:06:03.516Z</time>
      </trkpt>
      <trkpt lat="48.025" lon="-4.53187">
        <ele>17</ele>
        <time>2022-06-03T16:06:07.530Z</time>
      </trkpt>
      <trkpt lat="48.02498" lon="-4.53194">
        <ele>17</ele>
        <time>2022-06-03T16:06:11.530Z</time>
      </trkpt>
      <trkpt lat="48.02496" lon="-4.53201">
        <ele>17</ele>
        <time>2022-06-03T16:06:16.520Z</time>
      </trkpt>
      <trkpt lat="48.02492" lon="-4.53205">
        <ele>17</ele>
        <time>2022-06-03T16:06:21.525Z</time>
      </trkpt>
      <trkpt lat="48.02489" lon="-4.53209">
        <ele>11</ele>
        <time>2022-06-03T16:06:25.516Z</time>
      </trkpt>
      <trkpt lat="48.02484" lon="-4.53218">
        <ele>16</ele>
        <time>2022-06-03T16:06:30.527Z</time>
      </trkpt>
      <trkpt lat="48.0248" lon="-4.53225">
        <ele>16</ele>
        <time>2022-06-03T16:06:35.507Z</time>
      </trkpt>
      <trkpt lat="48.02477" lon="-4.5323">
        <ele>16</ele>
        <time>2022-06-03T16:06:39.519Z</time>
      </trkpt>
      <trkpt lat="48.02474" lon="-4.53236">
        <ele>11</ele>
        <time>2022-06-03T16:06:43.531Z</time>
      </trkpt>
      <trkpt lat="48.0247" lon="-4.53244">
        <ele>11</ele>
        <time>2022-06-03T16:06:48.509Z</time>
      </trkpt>
      <trkpt lat="48.02467" lon="-4.53249">
        <ele>11</ele>
        <time>2022-06-03T16:06:52.522Z</time>
      </trkpt>
      <trkpt lat="48.02463" lon="-4.53256">
        <ele>11</ele>
        <time>2022-06-03T16:06:57.522Z</time>
      </trkpt>
      <trkpt lat="48.0246" lon="-4.53262">
        <ele>11</ele>
        <time>2022-06-03T16:07:02.497Z</time>
      </trkpt>
      <trkpt lat="48.02457" lon="-4.53267">
        <ele>15</ele>
        <time>2022-06-03T16:07:06.509Z</time>
      </trkpt>
      <trkpt lat="48.02454" lon="-4.53272">
        <ele>15</ele>
        <time>2022-06-03T16:07:10.527Z</time>
      </trkpt>
      <trkpt lat="48.02452" lon="-4.53277">
        <ele>15</ele>
        <time>2022-06-03T16:07:14.520Z</time>
      </trkpt>
      <trkpt lat="48.02449" lon="-4.53283">
        <ele>15</ele>
        <time>2022-06-03T16:07:19.498Z</time>
      </trkpt>
      <trkpt lat="48.02446" lon="-4.5329">
        <ele>15</ele>
        <time>2022-06-03T16:07:24.481Z</time>
      </trkpt>
      <trkpt lat="48.02443" lon="-4.53295">
        <ele>12</ele>
        <time>2022-06-03T16:07:28.523Z</time>
      </trkpt>
      <trkpt lat="48.0244" lon="-4.53303">
        <ele>12</ele>
        <time>2022-06-03T16:07:33.523Z</time>
      </trkpt>
      <trkpt lat="48.02438" lon="-4.53309">
        <ele>12</ele>
        <time>2022-06-03T16:07:38.511Z</time>
      </trkpt>
      <trkpt lat="48.02436" lon="-4.53313">
        <ele>12</ele>
        <time>2022-06-03T16:07:42.528Z</time>
      </trkpt>
      <trkpt lat="48.02434" lon="-4.53319">
        <ele>12</ele>
        <time>2022-06-03T16:07:47.509Z</time>
      </trkpt>
      <trkpt lat="48.02432" lon="-4.53328">
        <ele>7.2</ele>
        <time>2022-06-03T16:07:52.493Z</time>
      </trkpt>
      <trkpt lat="48.02428" lon="-4.5334">
        <ele>13</ele>
        <time>2022-06-03T16:07:57.468Z</time>
      </trkpt>
      <trkpt lat="48.02425" lon="-4.53346">
        <ele>13</ele>
        <time>2022-06-03T16:08:01.522Z</time>
      </trkpt>
      <trkpt lat="48.02422" lon="-4.53352">
        <ele>5</ele>
        <time>2022-06-03T16:08:06.472Z</time>
      </trkpt>
      <trkpt lat="48.02419" lon="-4.53357">
        <ele>4.4</ele>
        <time>2022-06-03T16:08:10.474Z</time>
      </trkpt>
      <trkpt lat="48.02415" lon="-4.53363">
        <ele>4.1</ele>
        <time>2022-06-03T16:08:14.517Z</time>
      </trkpt>
      <trkpt lat="48.02412" lon="-4.53371">
        <ele>4.2</ele>
        <time>2022-06-03T16:08:19.501Z</time>
      </trkpt>
      <trkpt lat="48.02411" lon="-4.53377">
        <ele>4.2</ele>
        <time>2022-06-03T16:08:23.512Z</time>
      </trkpt>
      <trkpt lat="48.0241" lon="-4.53383">
        <ele>4.1</ele>
        <time>2022-06-03T16:08:28.525Z</time>
      </trkpt>
      <trkpt lat="48.0241" lon="-4.53389">
        <ele>4</ele>
        <time>2022-06-03T16:08:33.475Z</time>
      </trkpt>
      <trkpt lat="48.02412" lon="-4.53396">
        <ele>4.1</ele>
        <time>2022-06-03T16:08:38.471Z</time>
      </trkpt>
      <trkpt lat="48.02414" lon="-4.53401">
        <ele>4.3</ele>
        <time>2022-06-03T16:08:43.470Z</time>
      </trkpt>
      <trkpt lat="48.02418" lon="-4.53406">
        <ele>4.6</ele>
        <time>2022-06-03T16:08:48.471Z</time>
      </trkpt>
      <trkpt lat="48.0242" lon="-4.53411">
        <ele>4.8</ele>
        <time>2022-06-03T16:08:52.485Z</time>
      </trkpt>
      <trkpt lat="48.02422" lon="-4.53416">
        <ele>5</ele>
        <time>2022-06-03T16:08:57.477Z</time>
      </trkpt>
      <trkpt lat="48.02425" lon="-4.53422">
        <ele>4.6</ele>
        <time>2022-06-03T16:09:02.478Z</time>
      </trkpt>
      <trkpt lat="48.02427" lon="-4.53429">
        <ele>4.1</ele>
        <time>2022-06-03T16:09:06.483Z</time>
      </trkpt>
      <trkpt lat="48.02424" lon="-4.53442">
        <ele>3.1</ele>
        <time>2022-06-03T16:09:15.477Z</time>
      </trkpt>
      <trkpt lat="48.02424" lon="-4.53445">
        <ele>3</ele>
        <time>2022-06-03T16:09:20.471Z</time>
      </trkpt>
      <trkpt lat="48.02426" lon="-4.53447">
        <ele>3</ele>
        <time>2022-06-03T16:09:24.462Z</time>
      </trkpt>
      <trkpt lat="48.02424" lon="-4.53448">
        <ele>3</ele>
        <time>2022-06-03T16:09:29.469Z</time>
      </trkpt>
      <trkpt lat="48.02427" lon="-4.5345">
        <ele>3</ele>
        <time>2022-06-03T16:09:33.483Z</time>
      </trkpt>
      <trkpt lat="48.02431" lon="-4.53456">
        <ele>3</ele>
        <time>2022-06-03T16:09:38.478Z</time>
      </trkpt>
      <trkpt lat="48.02434" lon="-4.53465">
        <ele>3</ele>
        <time>2022-06-03T16:09:43.470Z</time>
      </trkpt>
      <trkpt lat="48.02434" lon="-4.53467">
        <ele>3</ele>
        <time>2022-06-03T16:09:48.475Z</time>
      </trkpt>
      <trkpt lat="48.02437" lon="-4.53469">
        <ele>3</ele>
        <time>2022-06-03T16:09:53.471Z</time>
      </trkpt>
      <trkpt lat="48.02442" lon="-4.53463">
        <ele>3</ele>
        <time>2022-06-03T16:09:57.475Z</time>
      </trkpt>
      <trkpt lat="48.02445" lon="-4.53466">
        <time>2022-06-03T16:10:02.484Z</time>
      </trkpt>
      <trkpt lat="48.02447" lon="-4.53469">
        <time>2022-06-03T16:10:07.482Z</time>
      </trkpt>
      <trkpt lat="48.02451" lon="-4.53481">
        <time>2022-06-03T16:10:12.489Z</time>
      </trkpt>
      <trkpt lat="48.02453" lon="-4.53496">
        <ele>1</ele>
        <time>2022-06-03T16:10:17.477Z</time>
      </trkpt>
      <trkpt lat="48.02456" lon="-4.53506">
        <ele>1</ele>
        <time>2022-06-03T16:10:22.478Z</time>
      </trkpt>
      <trkpt lat="48.02459" lon="-4.53512">
        <ele>5</ele>
        <time>2022-06-03T16:10:27.513Z</time>
      </trkpt>
      <trkpt lat="48.02461" lon="-4.53515">
        <ele>1</ele>
        <time>2022-06-03T16:10:32.490Z</time>
      </trkpt>
      <trkpt lat="48.02463" lon="-4.53519">
        <ele>1</ele>
        <time>2022-06-03T16:10:36.522Z</time>
      </trkpt>
      <trkpt lat="48.02466" lon="-4.53527">
        <ele>1</ele>
        <time>2022-06-03T16:10:41.468Z</time>
      </trkpt>
      <trkpt lat="48.02468" lon="-4.53534">
        <ele>1</ele>
        <time>2022-06-03T16:10:45.483Z</time>
      </trkpt>
      <trkpt lat="48.02471" lon="-4.53541">
        <ele>1</ele>
        <time>2022-06-03T16:10:50.478Z</time>
      </trkpt>
      <trkpt lat="48.02471" lon="-4.53547">
        <ele>1</ele>
        <time>2022-06-03T16:10:55.491Z</time>
      </trkpt>
      <trkpt lat="48.02471" lon="-4.5355">
        <ele>1</ele>
        <time>2022-06-03T16:11:00.518Z</time>
      </trkpt>
      <trkpt lat="48.02471" lon="-4.53555">
        <ele>1</ele>
        <time>2022-06-03T16:11:05.479Z</time>
      </trkpt>
      <trkpt lat="48.0247" lon="-4.53559">
        <ele>1</ele>
        <time>2022-06-03T16:11:10.503Z</time>
      </trkpt>
      <trkpt lat="48.02469" lon="-4.53563">
        <ele>1</ele>
        <time>2022-06-03T16:11:14.510Z</time>
      </trkpt>
      <trkpt lat="48.02468" lon="-4.5357">
        <ele>2</ele>
        <time>2022-06-03T16:11:19.526Z</time>
      </trkpt>
      <trkpt lat="48.02466" lon="-4.53577">
        <ele>2</ele>
        <time>2022-06-03T16:11:24.504Z</time>
      </trkpt>
      <trkpt lat="48.02465" lon="-4.53583">
        <ele>2</ele>
        <time>2022-06-03T16:11:28.529Z</time>
      </trkpt>
      <trkpt lat="48.02464" lon="-4.53589">
        <ele>2</ele>
        <time>2022-06-03T16:11:33.504Z</time>
      </trkpt>
      <trkpt lat="48.02463" lon="-4.53594">
        <ele>2</ele>
        <time>2022-06-03T16:11:37.510Z</time>
      </trkpt>
      <trkpt lat="48.0246" lon="-4.53598">
        <ele>3</ele>
        <time>2022-06-03T16:11:42.497Z</time>
      </trkpt>
      <trkpt lat="48.02458" lon="-4.53601">
        <ele>3</ele>
        <time>2022-06-03T16:11:46.504Z</time>
      </trkpt>
      <trkpt lat="48.02455" lon="-4.53604">
        <ele>3</ele>
        <time>2022-06-03T16:11:51.507Z</time>
      </trkpt>
      <trkpt lat="48.02449" lon="-4.53607">
        <ele>3</ele>
        <time>2022-06-03T16:11:56.460Z</time>
      </trkpt>
      <trkpt lat="48.02447" lon="-4.53613">
        <ele>3</ele>
        <time>2022-06-03T16:12:01.478Z</time>
      </trkpt>
      <trkpt lat="48.02442" lon="-4.53618">
        <ele>3</ele>
        <time>2022-06-03T16:12:06.482Z</time>
      </trkpt>
      <trkpt lat="48.02438" lon="-4.53624">
        <ele>3</ele>
        <time>2022-06-03T16:12:11.503Z</time>
      </trkpt>
      <trkpt lat="48.02433" lon="-4.53632">
        <ele>4</ele>
        <time>2022-06-03T16:12:16.472Z</time>
      </trkpt>
      <trkpt lat="48.02431" lon="-4.53636">
        <ele>4</ele>
        <time>2022-06-03T16:12:20.505Z</time>
      </trkpt>
      <trkpt lat="48.02427" lon="-4.53642">
        <ele>5</ele>
        <time>2022-06-03T16:12:25.490Z</time>
      </trkpt>
      <trkpt lat="48.02425" lon="-4.53648">
        <ele>5</ele>
        <time>2022-06-03T16:12:29.502Z</time>
      </trkpt>
      <trkpt lat="48.02422" lon="-4.53654">
        <ele>3</ele>
        <time>2022-06-03T16:12:34.515Z</time>
      </trkpt>
      <trkpt lat="48.02418" lon="-4.5366">
        <ele>3</ele>
        <time>2022-06-03T16:12:39.515Z</time>
      </trkpt>
      <trkpt lat="48.02415" lon="-4.53667">
        <ele>3</ele>
        <time>2022-06-03T16:12:44.510Z</time>
      </trkpt>
      <trkpt lat="48.02413" lon="-4.53673">
        <ele>3</ele>
        <time>2022-06-03T16:12:49.510Z</time>
      </trkpt>
      <trkpt lat="48.02411" lon="-4.53678">
        <ele>3</ele>
        <time>2022-06-03T16:12:53.532Z</time>
      </trkpt>
      <trkpt lat="48.02409" lon="-4.53684">
        <ele>4</ele>
        <time>2022-06-03T16:12:58.527Z</time>
      </trkpt>
      <trkpt lat="48.02405" lon="-4.5369">
        <ele>4</ele>
        <time>2022-06-03T16:13:03.508Z</time>
      </trkpt>
      <trkpt lat="48.02401" lon="-4.53696">
        <ele>3</ele>
        <time>2022-06-03T16:13:08.513Z</time>
      </trkpt>
      <trkpt lat="48.02398" lon="-4.53703">
        <ele>3</ele>
        <time>2022-06-03T16:13:13.510Z</time>
      </trkpt>
      <trkpt lat="48.02395" lon="-4.53709">
        <ele>4</ele>
        <time>2022-06-03T16:13:18.494Z</time>
      </trkpt>
      <trkpt lat="48.02391" lon="-4.53714">
        <ele>4</ele>
        <time>2022-06-03T16:13:22.513Z</time>
      </trkpt>
      <trkpt lat="48.02389" lon="-4.53719">
        <ele>4</ele>
        <time>2022-06-03T16:13:26.524Z</time>
      </trkpt>
      <trkpt lat="48.02387" lon="-4.53725">
        <ele>4</ele>
        <time>2022-06-03T16:13:31.506Z</time>
      </trkpt>
      <trkpt lat="48.02384" lon="-4.53731">
        <ele>4</ele>
        <time>2022-06-03T16:13:36.515Z</time>
      </trkpt>
      <trkpt lat="48.0238" lon="-4.53737">
        <ele>5</ele>
        <time>2022-06-03T16:13:41.499Z</time>
      </trkpt>
      <trkpt lat="48.02377" lon="-4.53745">
        <ele>5</ele>
        <time>2022-06-03T16:13:45.505Z</time>
      </trkpt>
      <trkpt lat="48.0238" lon="-4.53753">
        <ele>5</ele>
        <time>2022-06-03T16:13:50.499Z</time>
      </trkpt>
      <trkpt lat="48.02384" lon="-4.53758">
        <ele>5</ele>
        <time>2022-06-03T16:13:54.499Z</time>
      </trkpt>
      <trkpt lat="48.02393" lon="-4.53761">
        <ele>5</ele>
        <time>2022-06-03T16:13:59.462Z</time>
      </trkpt>
      <trkpt lat="48.02396" lon="-4.53766">
        <ele>7</ele>
        <time>2022-06-03T16:14:03.476Z</time>
      </trkpt>
      <trkpt lat="48.02402" lon="-4.53768">
        <ele>7</ele>
        <time>2022-06-03T16:14:08.471Z</time>
      </trkpt>
      <trkpt lat="48.02434" lon="-4.53738">
        <ele>15</ele>
        <time>2022-06-03T16:14:13.457Z</time>
      </trkpt>
      <trkpt lat="48.0248" lon="-4.53724">
        <ele>17</ele>
        <time>2022-06-03T16:14:18.466Z</time>
      </trkpt>
      <trkpt lat="48.02531" lon="-4.53741">
        <ele>23</ele>
        <time>2022-06-03T16:14:23.490Z</time>
      </trkpt>
      <trkpt lat="48.02525" lon="-4.53743">
        <ele>23</ele>
        <time>2022-06-03T16:14:28.479Z</time>
      </trkpt>
      <trkpt lat="48.02507" lon="-4.53746">
        <ele>26</ele>
        <time>2022-06-03T16:14:33.466Z</time>
      </trkpt>
      <trkpt lat="48.0249" lon="-4.53746">
        <ele>26</ele>
        <time>2022-06-03T16:14:38.464Z</time>
      </trkpt>
      <trkpt lat="48.02487" lon="-4.5375">
        <ele>26</ele>
        <time>2022-06-03T16:14:43.461Z</time>
      </trkpt>
      <trkpt lat="48.02469" lon="-4.53761">
        <ele>24</ele>
        <time>2022-06-03T16:14:47.495Z</time>
      </trkpt>
      <trkpt lat="48.02408" lon="-4.53762">
        <ele>8</ele>
        <time>2022-06-03T16:14:51.514Z</time>
      </trkpt>
      <trkpt lat="48.02387" lon="-4.53776">
        <ele>7</ele>
        <time>2022-06-03T16:14:56.520Z</time>
      </trkpt>
      <trkpt lat="48.0238" lon="-4.53787">
        <ele>7</ele>
        <time>2022-06-03T16:15:01.510Z</time>
      </trkpt>
      <trkpt lat="48.02375" lon="-4.53795">
        <ele>6</ele>
        <time>2022-06-03T16:15:06.506Z</time>
      </trkpt>
      <trkpt lat="48.02369" lon="-4.53802">
        <ele>6</ele>
        <time>2022-06-03T16:15:11.491Z</time>
      </trkpt>
      <trkpt lat="48.02363" lon="-4.53802">
        <ele>6</ele>
        <time>2022-06-03T16:15:15.513Z</time>
      </trkpt>
      <trkpt lat="48.02357" lon="-4.53809">
        <ele>6</ele>
        <time>2022-06-03T16:15:20.508Z</time>
      </trkpt>
      <trkpt lat="48.02353" lon="-4.53817">
        <ele>6</ele>
        <time>2022-06-03T16:15:24.497Z</time>
      </trkpt>
      <trkpt lat="48.0235" lon="-4.53819">
        <ele>6</ele>
        <time>2022-06-03T16:15:28.526Z</time>
      </trkpt>
      <trkpt lat="48.02347" lon="-4.53825">
        <ele>6</ele>
        <time>2022-06-03T16:15:33.511Z</time>
      </trkpt>
      <trkpt lat="48.02345" lon="-4.53829">
        <ele>4</ele>
        <time>2022-06-03T16:15:38.537Z</time>
      </trkpt>
      <trkpt lat="48.0234" lon="-4.53831">
        <ele>4</ele>
        <time>2022-06-03T16:15:43.481Z</time>
      </trkpt>
      <trkpt lat="48.02339" lon="-4.53832">
        <ele>4</ele>
        <time>2022-06-03T16:15:48.469Z</time>
      </trkpt>
      <trkpt lat="48.02337" lon="-4.53837">
        <ele>4</ele>
        <time>2022-06-03T16:15:52.480Z</time>
      </trkpt>
      <trkpt lat="48.02336" lon="-4.53843">
        <ele>4</ele>
        <time>2022-06-03T16:15:57.486Z</time>
      </trkpt>
      <trkpt lat="48.02333" lon="-4.53847">
        <ele>4</ele>
        <time>2022-06-03T16:16:02.477Z</time>
      </trkpt>
      <trkpt lat="48.02328" lon="-4.53854">
        <ele>4</ele>
        <time>2022-06-03T16:16:34.486Z</time>
      </trkpt>
      <trkpt lat="48.02327" lon="-4.53853">
        <ele>4</ele>
        <time>2022-06-03T16:16:39.474Z</time>
      </trkpt>
      <trkpt lat="48.02326" lon="-4.53859">
        <ele>4</ele>
        <time>2022-06-03T16:16:44.474Z</time>
      </trkpt>
      <trkpt lat="48.02328" lon="-4.53867">
        <ele>4</ele>
        <time>2022-06-03T16:16:48.497Z</time>
      </trkpt>
      <trkpt lat="48.02328" lon="-4.53876">
        <ele>4</ele>
        <time>2022-06-03T16:16:53.478Z</time>
      </trkpt>
      <trkpt lat="48.02322" lon="-4.53882">
        <ele>4</ele>
        <time>2022-06-03T16:17:26.486Z</time>
      </trkpt>
      <trkpt lat="48.02318" lon="-4.53886">
        <ele>4</ele>
        <time>2022-06-03T16:17:31.478Z</time>
      </trkpt>
      <trkpt lat="48.02313" lon="-4.5389">
        <ele>4</ele>
        <time>2022-06-03T16:17:35.482Z</time>
      </trkpt>
      <trkpt lat="48.02306" lon="-4.53887">
        <ele>4</ele>
        <time>2022-06-03T16:17:40.490Z</time>
      </trkpt>
      <trkpt lat="48.02303" lon="-4.53891">
        <ele>4</ele>
        <time>2022-06-03T16:17:45.476Z</time>
      </trkpt>
      <trkpt lat="48.02299" lon="-4.53897">
        <ele>4</ele>
        <time>2022-06-03T16:17:50.476Z</time>
      </trkpt>
      <trkpt lat="48.02296" lon="-4.53901">
        <ele>4</ele>
        <time>2022-06-03T16:17:54.472Z</time>
      </trkpt>
      <trkpt lat="48.0229" lon="-4.53905">
        <ele>7</ele>
        <time>2022-06-03T16:17:59.461Z</time>
      </trkpt>
      <trkpt lat="48.02285" lon="-4.53903">
        <ele>7</ele>
        <time>2022-06-03T16:18:03.474Z</time>
      </trkpt>
      <trkpt lat="48.0228" lon="-4.53902">
        <ele>7</ele>
        <time>2022-06-03T16:18:08.488Z</time>
      </trkpt>
      <trkpt lat="48.02274" lon="-4.53903">
        <ele>7</ele>
        <time>2022-06-03T16:18:13.480Z</time>
      </trkpt>
      <trkpt lat="48.02271" lon="-4.539">
        <ele>7</ele>
        <time>2022-06-03T16:18:18.473Z</time>
      </trkpt>
      <trkpt lat="48.02265" lon="-4.53897">
        <ele>7</ele>
        <time>2022-06-03T16:18:23.474Z</time>
      </trkpt>
      <trkpt lat="48.02262" lon="-4.53892">
        <ele>9</ele>
        <time>2022-06-03T16:18:28.472Z</time>
      </trkpt>
      <trkpt lat="48.02259" lon="-4.53889">
        <ele>9</ele>
        <time>2022-06-03T16:18:32.467Z</time>
      </trkpt>
      <trkpt lat="48.02255" lon="-4.53885">
        <ele>9</ele>
        <time>2022-06-03T16:18:37.467Z</time>
      </trkpt>
      <trkpt lat="48.0225" lon="-4.53881">
        <ele>9</ele>
        <time>2022-06-03T16:18:42.465Z</time>
      </trkpt>
      <trkpt lat="48.02245" lon="-4.53883">
        <ele>9</ele>
        <time>2022-06-03T16:18:47.500Z</time>
      </trkpt>
      <trkpt lat="48.02239" lon="-4.53877">
        <ele>9</ele>
        <time>2022-06-03T16:18:52.465Z</time>
      </trkpt>
      <trkpt lat="48.02239" lon="-4.53876">
        <ele>9</ele>
        <time>2022-06-03T16:18:57.462Z</time>
      </trkpt>
      <trkpt lat="48.02241" lon="-4.53872">
        <ele>8</ele>
        <time>2022-06-03T16:19:02.471Z</time>
      </trkpt>
      <trkpt lat="48.02241" lon="-4.5387">
        <ele>8</ele>
        <time>2022-06-03T16:19:07.472Z</time>
      </trkpt>
      <trkpt lat="48.02238" lon="-4.53867">
        <ele>8</ele>
        <time>2022-06-03T16:28:22.466Z</time>
      </trkpt>
      <trkpt lat="48.02239" lon="-4.53878">
        <ele>9</ele>
        <time>2022-06-03T16:28:27.465Z</time>
      </trkpt>
      <trkpt lat="48.02237" lon="-4.53882">
        <ele>9</ele>
        <time>2022-06-03T16:28:31.462Z</time>
      </trkpt>
      <trkpt lat="48.02237" lon="-4.53882">
        <ele>9</ele>
        <time>2022-06-03T16:28:35.471Z</time>
      </trkpt>
      <trkpt lat="48.02237" lon="-4.53883">
        <ele>9</ele>
        <time>2022-06-03T16:28:40.490Z</time>
      </trkpt>
      <trkpt lat="48.02236" lon="-4.53882">
        <ele>7</ele>
        <time>2022-06-03T16:28:55.457Z</time>
      </trkpt>
      <trkpt lat="48.02236" lon="-4.53882">
        <ele>7</ele>
        <time>2022-06-03T16:29:00.461Z</time>
      </trkpt>
      <trkpt lat="48.02234" lon="-4.53877">
        <ele>7</ele>
        <time>2022-06-03T16:29:04.496Z</time>
      </trkpt>
      <trkpt lat="48.02233" lon="-4.53873">
        <ele>5</ele>
        <time>2022-06-03T16:29:08.490Z</time>
      </trkpt>
      <trkpt lat="48.02234" lon="-4.53869">
        <ele>5</ele>
        <time>2022-06-03T16:29:13.470Z</time>
      </trkpt>
      <trkpt lat="48.02235" lon="-4.53866">
        <ele>5</ele>
        <time>2022-06-03T16:45:34.513Z</time>
      </trkpt>
      <trkpt lat="48.02235" lon="-4.53865">
        <ele>5</ele>
        <time>2022-06-03T16:45:39.505Z</time>
      </trkpt>
      <trkpt lat="48.02237" lon="-4.53867">
        <ele>8</ele>
        <time>2022-06-03T16:45:44.504Z</time>
      </trkpt>
      <trkpt lat="48.02239" lon="-4.53873">
        <ele>8</ele>
        <time>2022-06-03T16:45:48.519Z</time>
      </trkpt>
      <trkpt lat="48.02242" lon="-4.53881">
        <ele>9</ele>
        <time>2022-06-03T16:45:52.505Z</time>
      </trkpt>
      <trkpt lat="48.02245" lon="-4.53886">
        <ele>9</ele>
        <time>2022-06-03T16:45:56.506Z</time>
      </trkpt>
      <trkpt lat="48.02247" lon="-4.53893">
        <ele>9</ele>
        <time>2022-06-03T16:46:01.518Z</time>
      </trkpt>
      <trkpt lat="48.02249" lon="-4.53899">
        <ele>9</ele>
        <time>2022-06-03T16:46:06.517Z</time>
      </trkpt>
      <trkpt lat="48.02248" lon="-4.53901">
        <ele>9</ele>
        <time>2022-06-03T16:46:11.513Z</time>
      </trkpt>
      <trkpt lat="48.02249" lon="-4.53906">
        <ele>9</ele>
        <time>2022-06-03T16:46:16.473Z</time>
      </trkpt>
      <trkpt lat="48.0225" lon="-4.53913">
        <ele>9</ele>
        <time>2022-06-03T16:46:20.512Z</time>
      </trkpt>
      <trkpt lat="48.02257" lon="-4.53922">
        <ele>9</ele>
        <time>2022-06-03T16:46:25.496Z</time>
      </trkpt>
      <trkpt lat="48.02263" lon="-4.53932">
        <ele>9</ele>
        <time>2022-06-03T16:46:29.645Z</time>
      </trkpt>
      <trkpt lat="48.02277" lon="-4.5397">
        <ele>7</ele>
        <time>2022-06-03T16:46:34.471Z</time>
      </trkpt>
      <trkpt lat="48.02265" lon="-4.53929">
        <ele>7</ele>
        <time>2022-06-03T16:46:39.492Z</time>
      </trkpt>
      <trkpt lat="48.02262" lon="-4.53915">
        <ele>9</ele>
        <time>2022-06-03T16:46:44.487Z</time>
      </trkpt>
      <trkpt lat="48.02248" lon="-4.53884">
        <ele>9</ele>
        <time>2022-06-03T16:46:48.478Z</time>
      </trkpt>
      <trkpt lat="48.02239" lon="-4.53867">
        <ele>8</ele>
        <time>2022-06-03T16:46:53.498Z</time>
      </trkpt>
      <trkpt lat="48.02231" lon="-4.53839">
        <ele>4</ele>
        <time>2022-06-03T16:46:58.477Z</time>
      </trkpt>
      <trkpt lat="48.02232" lon="-4.53834">
        <ele>4</ele>
        <time>2022-06-03T16:47:08.487Z</time>
      </trkpt>
      <trkpt lat="48.02224" lon="-4.53806">
        <ele>2</ele>
        <time>2022-06-03T16:47:13.474Z</time>
      </trkpt>
      <trkpt lat="48.02238" lon="-4.53863">
        <ele>8</ele>
        <time>2022-06-03T16:48:26.522Z</time>
      </trkpt>
      <trkpt lat="48.02238" lon="-4.53863">
        <ele>8</ele>
        <time>2022-06-03T16:48:31.539Z</time>
      </trkpt>
      <trkpt lat="48.02238" lon="-4.53864">
        <ele>8</ele>
        <time>2022-06-03T16:48:36.510Z</time>
      </trkpt>
      <trkpt lat="48.02238" lon="-4.53864">
        <ele>8</ele>
        <time>2022-06-03T16:48:40.510Z</time>
      </trkpt>
      <trkpt lat="48.02238" lon="-4.53864">
        <ele>8</ele>
        <time>2022-06-03T16:48:44.511Z</time>
      </trkpt>
      <trkpt lat="48.02238" lon="-4.53866">
        <ele>8</ele>
        <time>2022-06-03T17:02:25.520Z</time>
      </trkpt>
      <trkpt lat="48.02237" lon="-4.53869">
        <ele>8</ele>
        <time>2022-06-03T17:02:30.486Z</time>
      </trkpt>
      <trkpt lat="48.02237" lon="-4.53871">
        <ele>8</ele>
        <time>2022-06-03T17:02:34.488Z</time>
      </trkpt>
      <trkpt lat="48.02238" lon="-4.53872">
        <ele>8</ele>
        <time>2022-06-03T17:02:38.513Z</time>
      </trkpt>
      <trkpt lat="48.02239" lon="-4.53878">
        <ele>9</ele>
        <time>2022-06-03T17:02:43.509Z</time>
      </trkpt>
      <trkpt lat="48.0224" lon="-4.53879">
        <ele>9</ele>
        <time>2022-06-03T17:02:48.533Z</time>
      </trkpt>
      <trkpt lat="48.02243" lon="-4.5388">
        <ele>9</ele>
        <time>2022-06-03T17:02:53.521Z</time>
      </trkpt>
      <trkpt lat="48.02247" lon="-4.53883">
        <ele>9</ele>
        <time>2022-06-03T17:02:58.520Z</time>
      </trkpt>
      <trkpt lat="48.0225" lon="-4.53884">
        <ele>9</ele>
        <time>2022-06-03T17:03:03.503Z</time>
      </trkpt>
      <trkpt lat="48.02255" lon="-4.53891">
        <ele>9</ele>
        <time>2022-06-03T17:03:21.535Z</time>
      </trkpt>
      <trkpt lat="48.02256" lon="-4.53892">
        <ele>9</ele>
        <time>2022-06-03T17:03:25.547Z</time>
      </trkpt>
      <trkpt lat="48.02257" lon="-4.53893">
        <ele>9</ele>
        <time>2022-06-03T17:03:29.501Z</time>
      </trkpt>
      <trkpt lat="48.02258" lon="-4.53895">
        <ele>9</ele>
        <time>2022-06-03T17:03:34.522Z</time>
      </trkpt>
      <trkpt lat="48.02259" lon="-4.53895">
        <ele>9</ele>
        <time>2022-06-03T17:03:38.534Z</time>
      </trkpt>
      <trkpt lat="48.02259" lon="-4.53897">
        <ele>9</ele>
        <time>2022-06-03T17:03:47.521Z</time>
      </trkpt>
      <trkpt lat="48.0226" lon="-4.539">
        <ele>9</ele>
        <time>2022-06-03T17:03:52.513Z</time>
      </trkpt>
      <trkpt lat="48.02262" lon="-4.53904">
        <ele>9</ele>
        <time>2022-06-03T17:03:57.529Z</time>
      </trkpt>
      <trkpt lat="48.02264" lon="-4.53907">
        <ele>7</ele>
        <time>2022-06-03T17:04:02.531Z</time>
      </trkpt>
      <trkpt lat="48.02266" lon="-4.53913">
        <ele>7</ele>
        <time>2022-06-03T17:04:07.512Z</time>
      </trkpt>
      <trkpt lat="48.02269" lon="-4.53912">
        <ele>7</ele>
        <time>2022-06-03T17:05:09.521Z</time>
      </trkpt>
      <trkpt lat="48.02269" lon="-4.53912">
        <ele>7</ele>
        <time>2022-06-03T17:05:14.532Z</time>
      </trkpt>
      <trkpt lat="48.02272" lon="-4.53915">
        <ele>7</ele>
        <time>2022-06-03T17:05:19.528Z</time>
      </trkpt>
      <trkpt lat="48.02273" lon="-4.53919">
        <ele>7</ele>
        <time>2022-06-03T17:05:24.526Z</time>
      </trkpt>
      <trkpt lat="48.02276" lon="-4.53924">
        <ele>7</ele>
        <time>2022-06-03T17:05:29.522Z</time>
      </trkpt>
      <trkpt lat="48.02277" lon="-4.53931">
        <ele>6</ele>
        <time>2022-06-03T17:05:34.536Z</time>
      </trkpt>
      <trkpt lat="48.02279" lon="-4.53938">
        <ele>6</ele>
        <time>2022-06-03T17:05:39.525Z</time>
      </trkpt>
      <trkpt lat="48.02282" lon="-4.53944">
        <ele>6</ele>
        <time>2022-06-03T17:05:44.489Z</time>
      </trkpt>
      <trkpt lat="48.02283" lon="-4.53947">
        <ele>6</ele>
        <time>2022-06-03T17:05:48.524Z</time>
      </trkpt>
      <trkpt lat="48.02281" lon="-4.53953">
        <ele>6</ele>
        <time>2022-06-03T17:05:53.495Z</time>
      </trkpt>
      <trkpt lat="48.0228" lon="-4.53957">
        <ele>6</ele>
        <time>2022-06-03T17:05:57.514Z</time>
      </trkpt>
      <trkpt lat="48.02283" lon="-4.5396">
        <ele>7</ele>
        <time>2022-06-03T17:06:02.509Z</time>
      </trkpt>
      <trkpt lat="48.02285" lon="-4.53965">
        <ele>7</ele>
        <time>2022-06-03T17:06:06.659Z</time>
      </trkpt>
      <trkpt lat="48.02288" lon="-4.53972">
        <ele>7</ele>
        <time>2022-06-03T17:06:11.518Z</time>
      </trkpt>
      <trkpt lat="48.02292" lon="-4.53977">
        <ele>6</ele>
        <time>2022-06-03T17:06:16.523Z</time>
      </trkpt>
      <trkpt lat="48.02296" lon="-4.53981">
        <ele>6</ele>
        <time>2022-06-03T17:06:21.504Z</time>
      </trkpt>
      <trkpt lat="48.02299" lon="-4.53985">
        <ele>6</ele>
        <time>2022-06-03T17:06:26.484Z</time>
      </trkpt>
      <trkpt lat="48.02302" lon="-4.53988">
        <ele>8</ele>
        <time>2022-06-03T17:06:31.465Z</time>
      </trkpt>
      <trkpt lat="48.02306" lon="-4.53989">
        <ele>8</ele>
        <time>2022-06-03T17:06:36.507Z</time>
      </trkpt>
      <trkpt lat="48.02308" lon="-4.53992">
        <ele>8</ele>
        <time>2022-06-03T17:06:40.503Z</time>
      </trkpt>
      <trkpt lat="48.02311" lon="-4.53995">
        <ele>8</ele>
        <time>2022-06-03T17:06:44.515Z</time>
      </trkpt>
      <trkpt lat="48.02315" lon="-4.53996">
        <ele>8</ele>
        <time>2022-06-03T17:06:49.514Z</time>
      </trkpt>
      <trkpt lat="48.02316" lon="-4.53996">
        <ele>8</ele>
        <time>2022-06-03T17:06:54.471Z</time>
      </trkpt>
      <trkpt lat="48.02316" lon="-4.53998">
        <ele>8</ele>
        <time>2022-06-03T17:06:59.474Z</time>
      </trkpt>
      <trkpt lat="48.02316" lon="-4.54">
        <ele>8</ele>
        <time>2022-06-03T17:07:03.511Z</time>
      </trkpt>
      <trkpt lat="48.02319" lon="-4.54003">
        <ele>8</ele>
        <time>2022-06-03T17:07:08.510Z</time>
      </trkpt>
      <trkpt lat="48.02323" lon="-4.54008">
        <ele>9</ele>
        <time>2022-06-03T17:07:13.501Z</time>
      </trkpt>
      <trkpt lat="48.02326" lon="-4.54012">
        <ele>9</ele>
        <time>2022-06-03T17:07:18.495Z</time>
      </trkpt>
      <trkpt lat="48.02328" lon="-4.54017">
        <ele>11</ele>
        <time>2022-06-03T17:07:22.515Z</time>
      </trkpt>
      <trkpt lat="48.0233" lon="-4.54021">
        <ele>11</ele>
        <time>2022-06-03T17:07:27.497Z</time>
      </trkpt>
      <trkpt lat="48.02331" lon="-4.54023">
        <ele>11</ele>
        <time>2022-06-03T17:07:32.532Z</time>
      </trkpt>
      <trkpt lat="48.02333" lon="-4.54024">
        <ele>11</ele>
        <time>2022-06-03T17:07:37.528Z</time>
      </trkpt>
      <trkpt lat="48.02333" lon="-4.54028">
        <ele>11</ele>
        <time>2022-06-03T17:07:42.504Z</time>
      </trkpt>
      <trkpt lat="48.0233" lon="-4.54031">
        <ele>11</ele>
        <time>2022-06-03T17:07:46.532Z</time>
      </trkpt>
      <trkpt lat="48.02328" lon="-4.54038">
        <ele>11</ele>
        <time>2022-06-03T17:07:51.519Z</time>
      </trkpt>
      <trkpt lat="48.02326" lon="-4.54043">
        <ele>14</ele>
        <time>2022-06-03T17:07:55.516Z</time>
      </trkpt>
      <trkpt lat="48.02328" lon="-4.54055">
        <ele>14</ele>
        <time>2022-06-03T17:08:04.520Z</time>
      </trkpt>
      <trkpt lat="48.02329" lon="-4.54059">
        <ele>14</ele>
        <time>2022-06-03T17:08:09.521Z</time>
      </trkpt>
      <trkpt lat="48.02329" lon="-4.5406">
        <ele>14</ele>
        <time>2022-06-03T17:08:14.509Z</time>
      </trkpt>
      <trkpt lat="48.02327" lon="-4.54062">
        <ele>14</ele>
        <time>2022-06-03T17:08:19.634Z</time>
      </trkpt>
      <trkpt lat="48.02324" lon="-4.54063">
        <ele>14</ele>
        <time>2022-06-03T17:08:24.626Z</time>
      </trkpt>
      <trkpt lat="48.02322" lon="-4.54065">
        <ele>14</ele>
        <time>2022-06-03T17:08:29.520Z</time>
      </trkpt>
      <trkpt lat="48.02323" lon="-4.54068">
        <ele>14</ele>
        <time>2022-06-03T17:08:34.492Z</time>
      </trkpt>
      <trkpt lat="48.0232" lon="-4.54069">
        <ele>14</ele>
        <time>2022-06-03T17:08:38.518Z</time>
      </trkpt>
      <trkpt lat="48.02316" lon="-4.54074">
        <ele>16</ele>
        <time>2022-06-03T17:08:43.506Z</time>
      </trkpt>
      <trkpt lat="48.02312" lon="-4.54077">
        <ele>16</ele>
        <time>2022-06-03T17:08:47.506Z</time>
      </trkpt>
      <trkpt lat="48.02308" lon="-4.54078">
        <ele>16</ele>
        <time>2022-06-03T17:08:56.508Z</time>
      </trkpt>
      <trkpt lat="48.02306" lon="-4.5408">
        <ele>16</ele>
        <time>2022-06-03T17:09:01.508Z</time>
      </trkpt>
      <trkpt lat="48.02304" lon="-4.54082">
        <ele>16</ele>
        <time>2022-06-03T17:09:06.533Z</time>
      </trkpt>
      <trkpt lat="48.02304" lon="-4.54086">
        <ele>16</ele>
        <time>2022-06-03T17:09:11.523Z</time>
      </trkpt>
      <trkpt lat="48.02302" lon="-4.54088">
        <ele>16</ele>
        <time>2022-06-03T17:09:16.519Z</time>
      </trkpt>
      <trkpt lat="48.023" lon="-4.54093">
        <ele>16</ele>
        <time>2022-06-03T17:09:20.578Z</time>
      </trkpt>
      <trkpt lat="48.02295" lon="-4.54099">
        <ele>19</ele>
        <time>2022-06-03T17:09:25.477Z</time>
      </trkpt>
      <trkpt lat="48.02291" lon="-4.54102">
        <ele>17</ele>
        <time>2022-06-03T17:09:29.520Z</time>
      </trkpt>
      <trkpt lat="48.02286" lon="-4.54111">
        <ele>17</ele>
        <time>2022-06-03T17:09:34.531Z</time>
      </trkpt>
      <trkpt lat="48.02285" lon="-4.54119">
        <ele>17</ele>
        <time>2022-06-03T17:09:38.521Z</time>
      </trkpt>
      <trkpt lat="48.02283" lon="-4.54125">
        <ele>18</ele>
        <time>2022-06-03T17:09:43.536Z</time>
      </trkpt>
      <trkpt lat="48.02283" lon="-4.5413">
        <ele>18</ele>
        <time>2022-06-03T17:09:47.555Z</time>
      </trkpt>
      <trkpt lat="48.02277" lon="-4.54142">
        <ele>18</ele>
        <time>2022-06-03T17:09:52.478Z</time>
      </trkpt>
      <trkpt lat="48.02271" lon="-4.54154">
        <ele>19</ele>
        <time>2022-06-03T17:10:15.466Z</time>
      </trkpt>
      <trkpt lat="48.02267" lon="-4.54151">
        <ele>18</ele>
        <time>2022-06-03T17:10:20.498Z</time>
      </trkpt>
      <trkpt lat="48.02267" lon="-4.54151">
        <ele>18</ele>
        <time>2022-06-03T17:10:24.488Z</time>
      </trkpt>
      <trkpt lat="48.02266" lon="-4.5415">
        <ele>18</ele>
        <time>2022-06-03T17:10:29.494Z</time>
      </trkpt>
      <trkpt lat="48.02264" lon="-4.54148">
        <ele>18</ele>
        <time>2022-06-03T17:10:34.486Z</time>
      </trkpt>
      <trkpt lat="48.02257" lon="-4.54143">
        <ele>18</ele>
        <time>2022-06-03T17:10:39.488Z</time>
      </trkpt>
      <trkpt lat="48.02252" lon="-4.54139">
        <ele>18</ele>
        <time>2022-06-03T17:10:43.492Z</time>
      </trkpt>
      <trkpt lat="48.02248" lon="-4.54136">
        <ele>18</ele>
        <time>2022-06-03T17:10:48.499Z</time>
      </trkpt>
      <trkpt lat="48.02244" lon="-4.54136">
        <ele>18</ele>
        <time>2022-06-03T17:10:53.469Z</time>
      </trkpt>
      <trkpt lat="48.02231" lon="-4.54135">
        <ele>21</ele>
        <time>2022-06-03T17:11:56.484Z</time>
      </trkpt>
      <trkpt lat="48.02231" lon="-4.54135">
        <ele>21</ele>
        <time>2022-06-03T17:12:00.512Z</time>
      </trkpt>
      <trkpt lat="48.02231" lon="-4.54135">
        <ele>21</ele>
        <time>2022-06-03T17:12:05.494Z</time>
      </trkpt>
      <trkpt lat="48.02231" lon="-4.54136">
        <ele>21</ele>
        <time>2022-06-03T17:12:09.512Z</time>
      </trkpt>
      <trkpt lat="48.02231" lon="-4.54134">
        <ele>21</ele>
        <time>2022-06-03T17:12:13.519Z</time>
      </trkpt>
      <trkpt lat="48.02228" lon="-4.54133">
        <ele>21</ele>
        <time>2022-06-03T17:12:18.515Z</time>
      </trkpt>
      <trkpt lat="48.02229" lon="-4.54131">
        <ele>21</ele>
        <time>2022-06-03T17:12:23.484Z</time>
      </trkpt>
      <trkpt lat="48.02231" lon="-4.5413">
        <ele>21</ele>
        <time>2022-06-03T17:12:27.507Z</time>
      </trkpt>
      <trkpt lat="48.02235" lon="-4.54125">
        <ele>21</ele>
        <time>2022-06-03T17:12:32.505Z</time>
      </trkpt>
      <trkpt lat="48.02237" lon="-4.54122">
        <ele>16</ele>
        <time>2022-06-03T17:12:37.502Z</time>
      </trkpt>
      <trkpt lat="48.02241" lon="-4.54118">
        <ele>16</ele>
        <time>2022-06-03T17:12:42.499Z</time>
      </trkpt>
      <trkpt lat="48.02243" lon="-4.54112">
        <ele>16</ele>
        <time>2022-06-03T17:12:47.492Z</time>
      </trkpt>
      <trkpt lat="48.02246" lon="-4.54108">
        <ele>16</ele>
        <time>2022-06-03T17:12:51.503Z</time>
      </trkpt>
      <trkpt lat="48.02247" lon="-4.54103">
        <ele>16</ele>
        <time>2022-06-03T17:12:56.489Z</time>
      </trkpt>
      <trkpt lat="48.02248" lon="-4.541">
        <ele>16</ele>
        <time>2022-06-03T17:13:00.513Z</time>
      </trkpt>
      <trkpt lat="48.02249" lon="-4.54096">
        <ele>16</ele>
        <time>2022-06-03T17:13:05.506Z</time>
      </trkpt>
      <trkpt lat="48.02252" lon="-4.54093">
        <ele>16</ele>
        <time>2022-06-03T17:13:09.512Z</time>
      </trkpt>
      <trkpt lat="48.02256" lon="-4.54088">
        <ele>16</ele>
        <time>2022-06-03T17:13:14.512Z</time>
      </trkpt>
      <trkpt lat="48.02258" lon="-4.54085">
        <ele>16</ele>
        <time>2022-06-03T17:13:18.503Z</time>
      </trkpt>
      <trkpt lat="48.0226" lon="-4.5408">
        <ele>16</ele>
        <time>2022-06-03T17:13:23.484Z</time>
      </trkpt>
      <trkpt lat="48.02262" lon="-4.54076">
        <ele>16</ele>
        <time>2022-06-03T17:13:27.499Z</time>
      </trkpt>
      <trkpt lat="48.02265" lon="-4.54073">
        <ele>15</ele>
        <time>2022-06-03T17:13:31.517Z</time>
      </trkpt>
      <trkpt lat="48.02267" lon="-4.54069">
        <ele>13</ele>
        <time>2022-06-03T17:13:36.516Z</time>
      </trkpt>
      <trkpt lat="48.02268" lon="-4.54065">
        <ele>13</ele>
        <time>2022-06-03T17:13:41.513Z</time>
      </trkpt>
      <trkpt lat="48.02271" lon="-4.5406">
        <ele>13</ele>
        <time>2022-06-03T17:13:46.508Z</time>
      </trkpt>
      <trkpt lat="48.02273" lon="-4.54056">
        <ele>13</ele>
        <time>2022-06-03T17:13:51.501Z</time>
      </trkpt>
      <trkpt lat="48.02275" lon="-4.54051">
        <ele>13</ele>
        <time>2022-06-03T17:13:56.507Z</time>
      </trkpt>
      <trkpt lat="48.02278" lon="-4.54045">
        <ele>13</ele>
        <time>2022-06-03T17:14:01.507Z</time>
      </trkpt>
      <trkpt lat="48.0228" lon="-4.54041">
        <ele>11</ele>
        <time>2022-06-03T17:14:05.499Z</time>
      </trkpt>
      <trkpt lat="48.02282" lon="-4.54037">
        <ele>11</ele>
        <time>2022-06-03T17:14:09.503Z</time>
      </trkpt>
      <trkpt lat="48.02284" lon="-4.54033">
        <ele>11</ele>
        <time>2022-06-03T17:14:13.515Z</time>
      </trkpt>
      <trkpt lat="48.02285" lon="-4.54028">
        <ele>11</ele>
        <time>2022-06-03T17:14:18.515Z</time>
      </trkpt>
      <trkpt lat="48.02286" lon="-4.54026">
        <ele>11</ele>
        <time>2022-06-03T17:14:22.535Z</time>
      </trkpt>
      <trkpt lat="48.02287" lon="-4.5402">
        <ele>11</ele>
        <time>2022-06-03T17:14:27.518Z</time>
      </trkpt>
      <trkpt lat="48.02288" lon="-4.54013">
        <ele>9</ele>
        <time>2022-06-03T17:14:32.519Z</time>
      </trkpt>
      <trkpt lat="48.0229" lon="-4.54006">
        <ele>9</ele>
        <time>2022-06-03T17:14:37.492Z</time>
      </trkpt>
      <trkpt lat="48.02292" lon="-4.54001">
        <ele>8</ele>
        <time>2022-06-03T17:14:42.505Z</time>
      </trkpt>
      <trkpt lat="48.02294" lon="-4.53997">
        <ele>8</ele>
        <time>2022-06-03T17:14:47.500Z</time>
      </trkpt>
      <trkpt lat="48.02296" lon="-4.53988">
        <ele>8</ele>
        <time>2022-06-03T17:15:07.491Z</time>
      </trkpt>
      <trkpt lat="48.02294" lon="-4.53986">
        <ele>6</ele>
        <time>2022-06-03T17:15:11.490Z</time>
      </trkpt>
      <trkpt lat="48.02292" lon="-4.53982">
        <ele>6</ele>
        <time>2022-06-03T17:15:16.510Z</time>
      </trkpt>
      <trkpt lat="48.0229" lon="-4.5398">
        <ele>7</ele>
        <time>2022-06-03T17:15:21.507Z</time>
      </trkpt>
      <trkpt lat="48.02288" lon="-4.53977">
        <ele>7</ele>
        <time>2022-06-03T17:15:26.514Z</time>
      </trkpt>
      <trkpt lat="48.02285" lon="-4.53975">
        <ele>7</ele>
        <time>2022-06-03T17:15:31.512Z</time>
      </trkpt>
      <trkpt lat="48.02284" lon="-4.53972">
        <ele>7</ele>
        <time>2022-06-03T17:15:35.512Z</time>
      </trkpt>
      <trkpt lat="48.02283" lon="-4.53965">
        <ele>7</ele>
        <time>2022-06-03T17:15:40.506Z</time>
      </trkpt>
      <trkpt lat="48.0228" lon="-4.53962">
        <ele>7</ele>
        <time>2022-06-03T17:15:45.471Z</time>
      </trkpt>
      <trkpt lat="48.02279" lon="-4.5396">
        <ele>7</ele>
        <time>2022-06-03T17:15:49.493Z</time>
      </trkpt>
      <trkpt lat="48.02275" lon="-4.53957">
        <ele>6</ele>
        <time>2022-06-03T17:15:54.496Z</time>
      </trkpt>
      <trkpt lat="48.02272" lon="-4.53954">
        <ele>6</ele>
        <time>2022-06-03T17:15:59.463Z</time>
      </trkpt>
      <trkpt lat="48.02268" lon="-4.53949">
        <ele>6</ele>
        <time>2022-06-03T17:16:03.507Z</time>
      </trkpt>
      <trkpt lat="48.02267" lon="-4.53946">
        <ele>6</ele>
        <time>2022-06-03T17:16:08.488Z</time>
      </trkpt>
      <trkpt lat="48.02266" lon="-4.53941">
        <ele>6</ele>
        <time>2022-06-03T17:16:12.502Z</time>
      </trkpt>
      <trkpt lat="48.02268" lon="-4.53937">
        <ele>6</ele>
        <time>2022-06-03T17:16:17.498Z</time>
      </trkpt>
      <trkpt lat="48.02269" lon="-4.53932">
        <ele>6</ele>
        <time>2022-06-03T17:16:22.494Z</time>
      </trkpt>
      <trkpt lat="48.02271" lon="-4.53928">
        <ele>7</ele>
        <time>2022-06-03T17:16:26.504Z</time>
      </trkpt>
      <trkpt lat="48.02273" lon="-4.53924">
        <ele>7</ele>
        <time>2022-06-03T17:16:30.519Z</time>
      </trkpt>
      <trkpt lat="48.02274" lon="-4.53924">
        <ele>7</ele>
        <time>2022-06-03T17:16:35.516Z</time>
      </trkpt>
      <trkpt lat="48.02276" lon="-4.53919">
        <ele>7</ele>
        <time>2022-06-03T17:16:39.523Z</time>
      </trkpt>
      <trkpt lat="48.02275" lon="-4.53913">
        <ele>7</ele>
        <time>2022-06-03T17:16:44.502Z</time>
      </trkpt>
      <trkpt lat="48.02273" lon="-4.53908">
        <ele>7</ele>
        <time>2022-06-03T17:16:49.495Z</time>
      </trkpt>
      <trkpt lat="48.02269" lon="-4.53905">
        <ele>7</ele>
        <time>2022-06-03T17:16:54.477Z</time>
      </trkpt>
      <trkpt lat="48.02266" lon="-4.53902">
        <ele>7</ele>
        <time>2022-06-03T17:16:58.520Z</time>
      </trkpt>
      <trkpt lat="48.02261" lon="-4.53898">
        <ele>9</ele>
        <time>2022-06-03T17:17:03.495Z</time>
      </trkpt>
      <trkpt lat="48.02258" lon="-4.53894">
        <ele>9</ele>
        <time>2022-06-03T17:17:07.503Z</time>
      </trkpt>
      <trkpt lat="48.02254" lon="-4.53891">
        <ele>9</ele>
        <time>2022-06-03T17:17:12.502Z</time>
      </trkpt>
      <trkpt lat="48.02251" lon="-4.53888">
        <ele>9</ele>
        <time>2022-06-03T17:17:16.539Z</time>
      </trkpt>
      <trkpt lat="48.02247" lon="-4.53884">
        <ele>9</ele>
        <time>2022-06-03T17:17:21.512Z</time>
      </trkpt>
      <trkpt lat="48.02243" lon="-4.53879">
        <ele>9</ele>
        <time>2022-06-03T17:17:25.507Z</time>
      </trkpt>
      <trkpt lat="48.0224" lon="-4.53876">
        <ele>9</ele>
        <time>2022-06-03T17:17:30.495Z</time>
      </trkpt>
      <trkpt lat="48.02237" lon="-4.53873">
        <ele>8</ele>
        <time>2022-06-03T17:17:34.525Z</time>
      </trkpt>
      <trkpt lat="48.02234" lon="-4.53871">
        <ele>5</ele>
        <time>2022-06-03T17:17:38.520Z</time>
      </trkpt>
      <trkpt lat="48.02232" lon="-4.53868">
        <ele>5</ele>
        <time>2022-06-03T17:17:43.515Z</time>
      </trkpt>
      <trkpt lat="48.02228" lon="-4.53864">
        <ele>5</ele>
        <time>2022-06-03T17:17:48.501Z</time>
      </trkpt>
      <trkpt lat="48.02224" lon="-4.53862">
        <ele>5</ele>
        <time>2022-06-03T17:17:53.508Z</time>
      </trkpt>
      <trkpt lat="48.0222" lon="-4.53857">
        <ele>5</ele>
        <time>2022-06-03T17:17:58.503Z</time>
      </trkpt>
      <trkpt lat="48.02217" lon="-4.53852">
        <ele>5</ele>
        <time>2022-06-03T17:18:03.528Z</time>
      </trkpt>
      <trkpt lat="48.02214" lon="-4.53849">
        <ele>5</ele>
        <time>2022-06-03T17:18:08.511Z</time>
      </trkpt>
      <trkpt lat="48.0221" lon="-4.53846">
        <ele>4</ele>
        <time>2022-06-03T17:18:13.496Z</time>
      </trkpt>
      <trkpt lat="48.02208" lon="-4.53842">
        <ele>5</ele>
        <time>2022-06-03T17:18:17.496Z</time>
      </trkpt>
      <trkpt lat="48.022" lon="-4.5384">
        <ele>5</ele>
        <time>2022-06-03T17:18:44.527Z</time>
      </trkpt>
      <trkpt lat="48.02197" lon="-4.53839">
        <ele>5</ele>
        <time>2022-06-03T17:18:49.474Z</time>
      </trkpt>
      <trkpt lat="48.02194" lon="-4.53836">
        <ele>5</ele>
        <time>2022-06-03T17:18:53.507Z</time>
      </trkpt>
      <trkpt lat="48.02192" lon="-4.53834">
        <ele>5</ele>
        <time>2022-06-03T17:18:58.495Z</time>
      </trkpt>
      <trkpt lat="48.0219" lon="-4.53832">
        <ele>5</ele>
        <time>2022-06-03T17:19:03.480Z</time>
      </trkpt>
      <trkpt lat="48.02184" lon="-4.53803">
        <ele>4</ele>
        <time>2022-06-03T19:45:20.505Z</time>
      </trkpt>
      <trkpt lat="48.02185" lon="-4.53811">
        <ele>4</ele>
        <time>2022-06-03T19:45:25.490Z</time>
      </trkpt>
      <trkpt lat="48.02187" lon="-4.53814">
        <ele>4</ele>
        <time>2022-06-03T19:45:30.511Z</time>
      </trkpt>
      <trkpt lat="48.02186" lon="-4.53814">
        <ele>4</ele>
        <time>2022-06-03T19:45:35.505Z</time>
      </trkpt>
      <trkpt lat="48.02184" lon="-4.53815">
        <ele>4</ele>
        <time>2022-06-03T19:45:40.509Z</time>
      </trkpt>
      <trkpt lat="48.02188" lon="-4.53813">
        <ele>4</ele>
        <time>2022-06-03T19:46:13.523Z</time>
      </trkpt>
      <trkpt lat="48.02191" lon="-4.53816">
        <ele>4</ele>
        <time>2022-06-03T19:46:18.514Z</time>
      </trkpt>
      <trkpt lat="48.02193" lon="-4.53821">
        <ele>5</ele>
        <time>2022-06-03T19:46:22.532Z</time>
      </trkpt>
      <trkpt lat="48.02194" lon="-4.53824">
        <ele>5</ele>
        <time>2022-06-03T19:46:26.536Z</time>
      </trkpt>
      <trkpt lat="48.02195" lon="-4.53823">
        <ele>5</ele>
        <time>2022-06-03T19:46:31.502Z</time>
      </trkpt>
      <trkpt lat="48.02201" lon="-4.53826">
        <ele>5</ele>
        <time>2022-06-03T19:46:35.515Z</time>
      </trkpt>
      <trkpt lat="48.02204" lon="-4.53828">
        <ele>5</ele>
        <time>2022-06-03T19:46:40.508Z</time>
      </trkpt>
      <trkpt lat="48.02207" lon="-4.53832">
        <ele>5</ele>
        <time>2022-06-03T19:46:45.518Z</time>
      </trkpt>
      <trkpt lat="48.0221" lon="-4.53833">
        <ele>4</ele>
        <time>2022-06-03T19:46:50.512Z</time>
      </trkpt>
      <trkpt lat="48.02214" lon="-4.53833">
        <ele>4</ele>
        <time>2022-06-03T19:46:55.513Z</time>
      </trkpt>
      <trkpt lat="48.02219" lon="-4.53836">
        <ele>4</ele>
        <time>2022-06-03T19:47:00.524Z</time>
      </trkpt>
      <trkpt lat="48.02223" lon="-4.53841">
        <ele>4</ele>
        <time>2022-06-03T19:47:05.521Z</time>
      </trkpt>
      <trkpt lat="48.02227" lon="-4.53847">
        <ele>4</ele>
        <time>2022-06-03T19:47:09.514Z</time>
      </trkpt>
      <trkpt lat="48.02233" lon="-4.5385">
        <ele>5</ele>
        <time>2022-06-03T19:47:14.512Z</time>
      </trkpt>
      <trkpt lat="48.02239" lon="-4.53857">
        <ele>8</ele>
        <time>2022-06-03T19:47:19.520Z</time>
      </trkpt>
      <trkpt lat="48.02241" lon="-4.53864">
        <ele>8</ele>
        <time>2022-06-03T19:47:24.549Z</time>
      </trkpt>
      <trkpt lat="48.02244" lon="-4.53869">
        <ele>8</ele>
        <time>2022-06-03T19:47:29.524Z</time>
      </trkpt>
      <trkpt lat="48.0225" lon="-4.53867">
        <ele>8</ele>
        <time>2022-06-03T19:47:34.532Z</time>
      </trkpt>
      <trkpt lat="48.02254" lon="-4.53867">
        <ele>8</ele>
        <time>2022-06-03T19:47:38.524Z</time>
      </trkpt>
      <trkpt lat="48.02257" lon="-4.53864">
        <ele>8</ele>
        <time>2022-06-03T19:47:43.491Z</time>
      </trkpt>
      <trkpt lat="48.02259" lon="-4.53862">
        <ele>8</ele>
        <time>2022-06-03T19:47:47.509Z</time>
      </trkpt>
      <trkpt lat="48.02265" lon="-4.53861">
        <ele>6</ele>
        <time>2022-06-03T19:47:52.520Z</time>
      </trkpt>
      <trkpt lat="48.02267" lon="-4.53861">
        <ele>6</ele>
        <time>2022-06-03T19:47:57.512Z</time>
      </trkpt>
      <trkpt lat="48.02271" lon="-4.53859">
        <ele>6</ele>
        <time>2022-06-03T19:48:02.532Z</time>
      </trkpt>
      <trkpt lat="48.02274" lon="-4.53859">
        <ele>6</ele>
        <time>2022-06-03T19:48:07.517Z</time>
      </trkpt>
      <trkpt lat="48.02276" lon="-4.53859">
        <ele>6</ele>
        <time>2022-06-03T19:48:12.512Z</time>
      </trkpt>
      <trkpt lat="48.02278" lon="-4.53857">
        <ele>6</ele>
        <time>2022-06-03T19:48:17.491Z</time>
      </trkpt>
      <trkpt lat="48.02282" lon="-4.53857">
        <ele>6</ele>
        <time>2022-06-03T19:48:21.519Z</time>
      </trkpt>
      <trkpt lat="48.02287" lon="-4.53857">
        <ele>6</ele>
        <time>2022-06-03T19:48:26.512Z</time>
      </trkpt>
      <trkpt lat="48.0229" lon="-4.53857">
        <ele>6</ele>
        <time>2022-06-03T19:48:30.527Z</time>
      </trkpt>
      <trkpt lat="48.02295" lon="-4.53855">
        <ele>4</ele>
        <time>2022-06-03T19:48:35.513Z</time>
      </trkpt>
      <trkpt lat="48.02298" lon="-4.53855">
        <ele>4</ele>
        <time>2022-06-03T19:48:39.518Z</time>
      </trkpt>
      <trkpt lat="48.02304" lon="-4.53855">
        <ele>4</ele>
        <time>2022-06-03T19:48:44.516Z</time>
      </trkpt>
      <trkpt lat="48.02309" lon="-4.53855">
        <ele>4</ele>
        <time>2022-06-03T19:48:49.518Z</time>
      </trkpt>
      <trkpt lat="48.02315" lon="-4.53857">
        <ele>4</ele>
        <time>2022-06-03T19:48:54.494Z</time>
      </trkpt>
      <trkpt lat="48.0232" lon="-4.53857">
        <ele>4</ele>
        <time>2022-06-03T19:48:58.474Z</time>
      </trkpt>
      <trkpt lat="48.02322" lon="-4.53853">
        <ele>4</ele>
        <time>2022-06-03T19:49:03.481Z</time>
      </trkpt>
      <trkpt lat="48.02327" lon="-4.53849">
        <ele>4</ele>
        <time>2022-06-03T19:49:08.479Z</time>
      </trkpt>
      <trkpt lat="48.0233" lon="-4.53844">
        <ele>4</ele>
        <time>2022-06-03T19:49:13.483Z</time>
      </trkpt>
      <trkpt lat="48.02334" lon="-4.5384">
        <ele>4</ele>
        <time>2022-06-03T19:49:18.475Z</time>
      </trkpt>
      <trkpt lat="48.02336" lon="-4.53835">
        <ele>4</ele>
        <time>2022-06-03T19:49:23.471Z</time>
      </trkpt>
      <trkpt lat="48.02338" lon="-4.53829">
        <ele>4</ele>
        <time>2022-06-03T19:49:27.489Z</time>
      </trkpt>
      <trkpt lat="48.02341" lon="-4.53822">
        <ele>4</ele>
        <time>2022-06-03T19:49:32.488Z</time>
      </trkpt>
      <trkpt lat="48.02344" lon="-4.53819">
        <ele>5</ele>
        <time>2022-06-03T19:49:36.507Z</time>
      </trkpt>
      <trkpt lat="48.02346" lon="-4.53813">
        <ele>5</ele>
        <time>2022-06-03T19:49:41.499Z</time>
      </trkpt>
      <trkpt lat="48.02347" lon="-4.53806">
        <ele>5</ele>
        <time>2022-06-03T19:49:46.489Z</time>
      </trkpt>
      <trkpt lat="48.02349" lon="-4.53802">
        <ele>6</ele>
        <time>2022-06-03T19:49:50.487Z</time>
      </trkpt>
      <trkpt lat="48.02351" lon="-4.53796">
        <ele>6</ele>
        <time>2022-06-03T19:49:55.497Z</time>
      </trkpt>
      <trkpt lat="48.02353" lon="-4.53791">
        <ele>5</ele>
        <time>2022-06-03T19:49:59.499Z</time>
      </trkpt>
      <trkpt lat="48.02354" lon="-4.53785">
        <ele>5</ele>
        <time>2022-06-03T19:50:04.492Z</time>
      </trkpt>
      <trkpt lat="48.02356" lon="-4.53779">
        <ele>5</ele>
        <time>2022-06-03T19:50:09.494Z</time>
      </trkpt>
      <trkpt lat="48.02358" lon="-4.53773">
        <ele>5</ele>
        <time>2022-06-03T19:50:13.492Z</time>
      </trkpt>
      <trkpt lat="48.02361" lon="-4.53769">
        <ele>5</ele>
        <time>2022-06-03T19:50:17.491Z</time>
      </trkpt>
      <trkpt lat="48.02364" lon="-4.53764">
        <ele>5</ele>
        <time>2022-06-03T19:50:22.494Z</time>
      </trkpt>
      <trkpt lat="48.02366" lon="-4.53759">
        <ele>5</ele>
        <time>2022-06-03T19:50:26.504Z</time>
      </trkpt>
      <trkpt lat="48.02369" lon="-4.53754">
        <ele>5</ele>
        <time>2022-06-03T19:50:31.489Z</time>
      </trkpt>
      <trkpt lat="48.02372" lon="-4.53749">
        <ele>5</ele>
        <time>2022-06-03T19:50:36.481Z</time>
      </trkpt>
      <trkpt lat="48.02374" lon="-4.53747">
        <ele>5</ele>
        <time>2022-06-03T19:50:40.497Z</time>
      </trkpt>
      <trkpt lat="48.02377" lon="-4.53742">
        <ele>5</ele>
        <time>2022-06-03T19:50:45.489Z</time>
      </trkpt>
      <trkpt lat="48.02379" lon="-4.53738">
        <ele>5</ele>
        <time>2022-06-03T19:50:49.492Z</time>
      </trkpt>
      <trkpt lat="48.02381" lon="-4.53733">
        <ele>4</ele>
        <time>2022-06-03T19:50:54.496Z</time>
      </trkpt>
      <trkpt lat="48.02383" lon="-4.53728">
        <ele>4</ele>
        <time>2022-06-03T19:50:59.479Z</time>
      </trkpt>
      <trkpt lat="48.02385" lon="-4.53724">
        <ele>4</ele>
        <time>2022-06-03T19:51:03.497Z</time>
      </trkpt>
      <trkpt lat="48.02389" lon="-4.5372">
        <ele>4</ele>
        <time>2022-06-03T19:51:08.491Z</time>
      </trkpt>
      <trkpt lat="48.02392" lon="-4.53715">
        <ele>4</ele>
        <time>2022-06-03T19:51:13.489Z</time>
      </trkpt>
      <trkpt lat="48.02395" lon="-4.5371">
        <ele>4</ele>
        <time>2022-06-03T19:51:18.475Z</time>
      </trkpt>
      <trkpt lat="48.02397" lon="-4.53705">
        <ele>3</ele>
        <time>2022-06-03T19:51:22.495Z</time>
      </trkpt>
      <trkpt lat="48.02399" lon="-4.53699">
        <ele>3</ele>
        <time>2022-06-03T19:51:27.507Z</time>
      </trkpt>
      <trkpt lat="48.02401" lon="-4.53693">
        <ele>3</ele>
        <time>2022-06-03T19:51:32.497Z</time>
      </trkpt>
      <trkpt lat="48.02404" lon="-4.53688">
        <ele>4</ele>
        <time>2022-06-03T19:51:37.494Z</time>
      </trkpt>
      <trkpt lat="48.02407" lon="-4.53683">
        <ele>4</ele>
        <time>2022-06-03T19:51:42.475Z</time>
      </trkpt>
      <trkpt lat="48.02409" lon="-4.53679">
        <ele>3</ele>
        <time>2022-06-03T19:51:46.532Z</time>
      </trkpt>
      <trkpt lat="48.02411" lon="-4.53673">
        <ele>3</ele>
        <time>2022-06-03T19:51:51.530Z</time>
      </trkpt>
      <trkpt lat="48.02414" lon="-4.53668">
        <ele>3</ele>
        <time>2022-06-03T19:51:56.486Z</time>
      </trkpt>
      <trkpt lat="48.02416" lon="-4.53663">
        <ele>3</ele>
        <time>2022-06-03T19:52:01.490Z</time>
      </trkpt>
      <trkpt lat="48.02419" lon="-4.53658">
        <ele>3</ele>
        <time>2022-06-03T19:52:06.522Z</time>
      </trkpt>
      <trkpt lat="48.02422" lon="-4.53653">
        <ele>3</ele>
        <time>2022-06-03T19:52:11.484Z</time>
      </trkpt>
      <trkpt lat="48.02424" lon="-4.53648">
        <ele>5</ele>
        <time>2022-06-03T19:52:15.493Z</time>
      </trkpt>
      <trkpt lat="48.02426" lon="-4.53644">
        <ele>5</ele>
        <time>2022-06-03T19:52:19.501Z</time>
      </trkpt>
      <trkpt lat="48.02428" lon="-4.53639">
        <ele>5</ele>
        <time>2022-06-03T19:52:24.513Z</time>
      </trkpt>
      <trkpt lat="48.02431" lon="-4.53633">
        <ele>4</ele>
        <time>2022-06-03T19:52:29.530Z</time>
      </trkpt>
      <trkpt lat="48.02434" lon="-4.53628">
        <ele>4</ele>
        <time>2022-06-03T19:52:34.517Z</time>
      </trkpt>
      <trkpt lat="48.02437" lon="-4.53621">
        <ele>3</ele>
        <time>2022-06-03T19:52:39.508Z</time>
      </trkpt>
      <trkpt lat="48.0244" lon="-4.53618">
        <ele>3</ele>
        <time>2022-06-03T19:52:43.519Z</time>
      </trkpt>
      <trkpt lat="48.02443" lon="-4.53613">
        <ele>3</ele>
        <time>2022-06-03T19:52:48.533Z</time>
      </trkpt>
      <trkpt lat="48.02446" lon="-4.53609">
        <ele>3</ele>
        <time>2022-06-03T19:52:53.521Z</time>
      </trkpt>
      <trkpt lat="48.02449" lon="-4.53606">
        <ele>3</ele>
        <time>2022-06-03T19:52:57.533Z</time>
      </trkpt>
      <trkpt lat="48.02452" lon="-4.53602">
        <ele>3</ele>
        <time>2022-06-03T19:53:02.539Z</time>
      </trkpt>
      <trkpt lat="48.02456" lon="-4.53597">
        <ele>3</ele>
        <time>2022-06-03T19:53:07.506Z</time>
      </trkpt>
      <trkpt lat="48.02459" lon="-4.53594">
        <ele>2</ele>
        <time>2022-06-03T19:53:11.521Z</time>
      </trkpt>
      <trkpt lat="48.02464" lon="-4.53591">
        <ele>2</ele>
        <time>2022-06-03T19:53:16.527Z</time>
      </trkpt>
      <trkpt lat="48.02467" lon="-4.53586">
        <ele>2</ele>
        <time>2022-06-03T19:53:21.502Z</time>
      </trkpt>
      <trkpt lat="48.02469" lon="-4.5358">
        <ele>2</ele>
        <time>2022-06-03T19:53:26.526Z</time>
      </trkpt>
      <trkpt lat="48.02471" lon="-4.53573">
        <ele>2</ele>
        <time>2022-06-03T19:53:31.527Z</time>
      </trkpt>
      <trkpt lat="48.02471" lon="-4.53567">
        <ele>1</ele>
        <time>2022-06-03T19:53:35.531Z</time>
      </trkpt>
      <trkpt lat="48.02471" lon="-4.5356">
        <ele>1</ele>
        <time>2022-06-03T19:53:40.529Z</time>
      </trkpt>
      <trkpt lat="48.02471" lon="-4.53555">
        <ele>1</ele>
        <time>2022-06-03T19:53:44.542Z</time>
      </trkpt>
      <trkpt lat="48.02471" lon="-4.5355">
        <ele>1</ele>
        <time>2022-06-03T19:53:48.556Z</time>
      </trkpt>
      <trkpt lat="48.02471" lon="-4.53543">
        <ele>1</ele>
        <time>2022-06-03T19:53:53.536Z</time>
      </trkpt>
      <trkpt lat="48.02468" lon="-4.53538">
        <ele>1</ele>
        <time>2022-06-03T19:53:58.545Z</time>
      </trkpt>
      <trkpt lat="48.02465" lon="-4.53532">
        <ele>1</ele>
        <time>2022-06-03T19:54:03.509Z</time>
      </trkpt>
      <trkpt lat="48.02463" lon="-4.53528">
        <ele>1</ele>
        <time>2022-06-03T19:54:07.520Z</time>
      </trkpt>
      <trkpt lat="48.02461" lon="-4.53523">
        <ele>1</ele>
        <time>2022-06-03T19:54:11.529Z</time>
      </trkpt>
      <trkpt lat="48.02459" lon="-4.53517">
        <ele>1</ele>
        <time>2022-06-03T19:54:16.514Z</time>
      </trkpt>
      <trkpt lat="48.02456" lon="-4.53512">
        <ele>1</ele>
        <time>2022-06-03T19:54:20.544Z</time>
      </trkpt>
      <trkpt lat="48.02453" lon="-4.53507">
        <ele>1</ele>
        <time>2022-06-03T19:54:25.534Z</time>
      </trkpt>
      <trkpt lat="48.0245" lon="-4.535">
        <ele>1</ele>
        <time>2022-06-03T19:54:30.544Z</time>
      </trkpt>
      <trkpt lat="48.02447" lon="-4.53495">
        <ele>1</ele>
        <time>2022-06-03T19:54:35.525Z</time>
      </trkpt>
      <trkpt lat="48.02447" lon="-4.53494">
        <ele>1</ele>
        <time>2022-06-03T19:54:40.522Z</time>
      </trkpt>
      <trkpt lat="48.02447" lon="-4.53494">
        <ele>1</ele>
        <time>2022-06-03T19:54:44.531Z</time>
      </trkpt>
      <trkpt lat="48.02444" lon="-4.53488">
        <ele>1</ele>
        <time>2022-06-03T19:54:49.557Z</time>
      </trkpt>
      <trkpt lat="48.02441" lon="-4.53482">
        <time>2022-06-03T19:54:54.523Z</time>
      </trkpt>
      <trkpt lat="48.02439" lon="-4.53478">
        <time>2022-06-03T19:54:58.533Z</time>
      </trkpt>
      <trkpt lat="48.02436" lon="-4.53474">
        <time>2022-06-03T19:55:02.552Z</time>
      </trkpt>
      <trkpt lat="48.02433" lon="-4.53468">
        <ele>3</ele>
        <time>2022-06-03T19:55:07.549Z</time>
      </trkpt>
      <trkpt lat="48.0243" lon="-4.53462">
        <ele>3</ele>
        <time>2022-06-03T19:55:12.523Z</time>
      </trkpt>
      <trkpt lat="48.02428" lon="-4.53457">
        <ele>3</ele>
        <time>2022-06-03T19:55:17.500Z</time>
      </trkpt>
      <trkpt lat="48.02426" lon="-4.53452">
        <ele>3</ele>
        <time>2022-06-03T19:55:21.518Z</time>
      </trkpt>
      <trkpt lat="48.02423" lon="-4.53447">
        <ele>3</ele>
        <time>2022-06-03T19:55:26.528Z</time>
      </trkpt>
      <trkpt lat="48.02419" lon="-4.53441">
        <ele>3.2</ele>
        <time>2022-06-03T19:55:31.525Z</time>
      </trkpt>
      <trkpt lat="48.02422" lon="-4.53434">
        <ele>3.7</ele>
        <time>2022-06-03T19:55:36.518Z</time>
      </trkpt>
      <trkpt lat="48.02424" lon="-4.5343">
        <ele>4</ele>
        <time>2022-06-03T19:55:40.514Z</time>
      </trkpt>
      <trkpt lat="48.02422" lon="-4.53425">
        <ele>4.4</ele>
        <time>2022-06-03T19:55:44.529Z</time>
      </trkpt>
      <trkpt lat="48.0242" lon="-4.5342">
        <ele>4.8</ele>
        <time>2022-06-03T19:55:48.535Z</time>
      </trkpt>
      <trkpt lat="48.02417" lon="-4.53414">
        <ele>4.9</ele>
        <time>2022-06-03T19:55:53.535Z</time>
      </trkpt>
      <trkpt lat="48.02414" lon="-4.53409">
        <ele>4.5</ele>
        <time>2022-06-03T19:55:58.510Z</time>
      </trkpt>
      <trkpt lat="48.02412" lon="-4.53404">
        <ele>4.2</ele>
        <time>2022-06-03T19:56:02.545Z</time>
      </trkpt>
      <trkpt lat="48.02409" lon="-4.53398">
        <ele>4</ele>
        <time>2022-06-03T19:56:07.514Z</time>
      </trkpt>
      <trkpt lat="48.02408" lon="-4.53393">
        <ele>4</ele>
        <time>2022-06-03T19:56:11.520Z</time>
      </trkpt>
      <trkpt lat="48.02407" lon="-4.53386">
        <ele>4.1</ele>
        <time>2022-06-03T19:56:15.545Z</time>
      </trkpt>
      <trkpt lat="48.02407" lon="-4.53378">
        <ele>4.3</ele>
        <time>2022-06-03T19:56:20.534Z</time>
      </trkpt>
      <trkpt lat="48.02408" lon="-4.53372">
        <ele>4.4</ele>
        <time>2022-06-03T19:56:24.530Z</time>
      </trkpt>
      <trkpt lat="48.0241" lon="-4.53366">
        <ele>4.4</ele>
        <time>2022-06-03T19:56:29.523Z</time>
      </trkpt>
      <trkpt lat="48.02412" lon="-4.5336">
        <ele>4.6</ele>
        <time>2022-06-03T19:56:33.528Z</time>
      </trkpt>
      <trkpt lat="48.02415" lon="-4.53355">
        <ele>4.8</ele>
        <time>2022-06-03T19:56:38.525Z</time>
      </trkpt>
      <trkpt lat="48.02419" lon="-4.5335">
        <ele>5.2</ele>
        <time>2022-06-03T19:56:43.510Z</time>
      </trkpt>
      <trkpt lat="48.02422" lon="-4.53345">
        <ele>13</ele>
        <time>2022-06-03T19:56:48.529Z</time>
      </trkpt>
      <trkpt lat="48.02425" lon="-4.53339">
        <ele>13</ele>
        <time>2022-06-03T19:56:53.522Z</time>
      </trkpt>
      <trkpt lat="48.02427" lon="-4.53334">
        <ele>13</ele>
        <time>2022-06-03T19:56:57.518Z</time>
      </trkpt>
      <trkpt lat="48.02429" lon="-4.53328">
        <ele>13</ele>
        <time>2022-06-03T19:57:02.536Z</time>
      </trkpt>
      <trkpt lat="48.02431" lon="-4.53322">
        <ele>7.6</ele>
        <time>2022-06-03T19:57:07.511Z</time>
      </trkpt>
      <trkpt lat="48.02433" lon="-4.53317">
        <ele>12</ele>
        <time>2022-06-03T19:57:11.537Z</time>
      </trkpt>
      <trkpt lat="48.02435" lon="-4.53312">
        <ele>12</ele>
        <time>2022-06-03T19:57:15.528Z</time>
      </trkpt>
      <trkpt lat="48.02436" lon="-4.53305">
        <ele>12</ele>
        <time>2022-06-03T19:57:20.506Z</time>
      </trkpt>
      <trkpt lat="48.02438" lon="-4.53299">
        <ele>12</ele>
        <time>2022-06-03T19:57:24.527Z</time>
      </trkpt>
      <trkpt lat="48.0244" lon="-4.53293">
        <ele>12</ele>
        <time>2022-06-03T19:57:29.492Z</time>
      </trkpt>
      <trkpt lat="48.02442" lon="-4.53289">
        <ele>15</ele>
        <time>2022-06-03T19:57:33.514Z</time>
      </trkpt>
      <trkpt lat="48.02444" lon="-4.53284">
        <ele>15</ele>
        <time>2022-06-03T19:57:38.511Z</time>
      </trkpt>
      <trkpt lat="48.02446" lon="-4.53278">
        <ele>15</ele>
        <time>2022-06-03T19:57:43.515Z</time>
      </trkpt>
      <trkpt lat="48.02447" lon="-4.53271">
        <ele>15</ele>
        <time>2022-06-03T19:57:48.543Z</time>
      </trkpt>
      <trkpt lat="48.02451" lon="-4.53265">
        <ele>15</ele>
        <time>2022-06-03T19:57:53.513Z</time>
      </trkpt>
      <trkpt lat="48.02453" lon="-4.53259">
        <ele>20</ele>
        <time>2022-06-03T19:57:58.502Z</time>
      </trkpt>
      <trkpt lat="48.02455" lon="-4.53254">
        <ele>20</ele>
        <time>2022-06-03T19:58:02.520Z</time>
      </trkpt>
      <trkpt lat="48.02459" lon="-4.53249">
        <ele>11</ele>
        <time>2022-06-03T19:58:07.527Z</time>
      </trkpt>
      <trkpt lat="48.02463" lon="-4.53244">
        <ele>11</ele>
        <time>2022-06-03T19:58:12.501Z</time>
      </trkpt>
      <trkpt lat="48.02465" lon="-4.5324">
        <ele>11</ele>
        <time>2022-06-03T19:58:16.524Z</time>
      </trkpt>
      <trkpt lat="48.02468" lon="-4.53235">
        <ele>16</ele>
        <time>2022-06-03T19:58:21.520Z</time>
      </trkpt>
      <trkpt lat="48.02471" lon="-4.53229">
        <ele>16</ele>
        <time>2022-06-03T19:58:26.504Z</time>
      </trkpt>
      <trkpt lat="48.02474" lon="-4.53224">
        <ele>16</ele>
        <time>2022-06-03T19:58:31.510Z</time>
      </trkpt>
      <trkpt lat="48.02478" lon="-4.5322">
        <ele>16</ele>
        <time>2022-06-03T19:58:35.503Z</time>
      </trkpt>
      <trkpt lat="48.02482" lon="-4.53215">
        <ele>16</ele>
        <time>2022-06-03T19:58:40.531Z</time>
      </trkpt>
      <trkpt lat="48.02486" lon="-4.53211">
        <ele>16</ele>
        <time>2022-06-03T19:58:45.495Z</time>
      </trkpt>
      <trkpt lat="48.02489" lon="-4.53206">
        <ele>17</ele>
        <time>2022-06-03T19:58:50.519Z</time>
      </trkpt>
      <trkpt lat="48.02492" lon="-4.532">
        <ele>17</ele>
        <time>2022-06-03T19:58:55.508Z</time>
      </trkpt>
      <trkpt lat="48.02494" lon="-4.53194">
        <ele>17</ele>
        <time>2022-06-03T19:59:00.526Z</time>
      </trkpt>
      <trkpt lat="48.02496" lon="-4.53187">
        <ele>17</ele>
        <time>2022-06-03T19:59:05.517Z</time>
      </trkpt>
      <trkpt lat="48.02499" lon="-4.53181">
        <ele>17</ele>
        <time>2022-06-03T19:59:10.507Z</time>
      </trkpt>
      <trkpt lat="48.02501" lon="-4.53176">
        <ele>22</ele>
        <time>2022-06-03T19:59:15.510Z</time>
      </trkpt>
      <trkpt lat="48.02503" lon="-4.53172">
        <ele>22</ele>
        <time>2022-06-03T19:59:20.515Z</time>
      </trkpt>
      <trkpt lat="48.02504" lon="-4.53169">
        <ele>22</ele>
        <time>2022-06-03T19:59:24.512Z</time>
      </trkpt>
      <trkpt lat="48.02508" lon="-4.53164">
        <ele>22</ele>
        <time>2022-06-03T19:59:29.507Z</time>
      </trkpt>
      <trkpt lat="48.02512" lon="-4.53159">
        <ele>22</ele>
        <time>2022-06-03T19:59:34.495Z</time>
      </trkpt>
      <trkpt lat="48.02514" lon="-4.53154">
        <ele>19</ele>
        <time>2022-06-03T19:59:38.487Z</time>
      </trkpt>
      <trkpt lat="48.02517" lon="-4.53149">
        <ele>23</ele>
        <time>2022-06-03T19:59:43.507Z</time>
      </trkpt>
      <trkpt lat="48.02522" lon="-4.53143">
        <ele>23</ele>
        <time>2022-06-03T19:59:48.493Z</time>
      </trkpt>
      <trkpt lat="48.02524" lon="-4.53139">
        <ele>23</ele>
        <time>2022-06-03T19:59:52.503Z</time>
      </trkpt>
      <trkpt lat="48.02526" lon="-4.53132">
        <ele>23</ele>
        <time>2022-06-03T19:59:57.489Z</time>
      </trkpt>
      <trkpt lat="48.02529" lon="-4.53127">
        <ele>23</ele>
        <time>2022-06-03T20:00:01.512Z</time>
      </trkpt>
      <trkpt lat="48.0253" lon="-4.5312">
        <ele>26</ele>
        <time>2022-06-03T20:00:06.501Z</time>
      </trkpt>
      <trkpt lat="48.0253" lon="-4.53115">
        <ele>26</ele>
        <time>2022-06-03T20:00:10.493Z</time>
      </trkpt>
      <trkpt lat="48.0253" lon="-4.53108">
        <ele>26</ele>
        <time>2022-06-03T20:00:15.486Z</time>
      </trkpt>
      <trkpt lat="48.02531" lon="-4.53102">
        <ele>26</ele>
        <time>2022-06-03T20:00:20.499Z</time>
      </trkpt>
      <trkpt lat="48.02531" lon="-4.53096">
        <ele>28</ele>
        <time>2022-06-03T20:00:25.482Z</time>
      </trkpt>
      <trkpt lat="48.02533" lon="-4.53091">
        <ele>28</ele>
        <time>2022-06-03T20:00:29.511Z</time>
      </trkpt>
      <trkpt lat="48.02533" lon="-4.53085">
        <ele>28</ele>
        <time>2022-06-03T20:00:34.498Z</time>
      </trkpt>
      <trkpt lat="48.02532" lon="-4.53083">
        <ele>28</ele>
        <time>2022-06-03T20:00:39.493Z</time>
      </trkpt>
      <trkpt lat="48.02529" lon="-4.5308">
        <ele>28</ele>
        <time>2022-06-03T20:00:43.515Z</time>
      </trkpt>
      <trkpt lat="48.02525" lon="-4.53078">
        <ele>28</ele>
        <time>2022-06-03T20:00:48.544Z</time>
      </trkpt>
      <trkpt lat="48.02522" lon="-4.53077">
        <ele>28</ele>
        <time>2022-06-03T20:00:53.500Z</time>
      </trkpt>
      <trkpt lat="48.02519" lon="-4.53075">
        <ele>28</ele>
        <time>2022-06-03T20:00:57.525Z</time>
      </trkpt>
      <trkpt lat="48.02516" lon="-4.53073">
        <ele>28</ele>
        <time>2022-06-03T20:01:02.545Z</time>
      </trkpt>
      <trkpt lat="48.02513" lon="-4.53071">
        <ele>35</ele>
        <time>2022-06-03T20:01:07.500Z</time>
      </trkpt>
      <trkpt lat="48.02512" lon="-4.53068">
        <ele>36</ele>
        <time>2022-06-03T20:01:11.522Z</time>
      </trkpt>
      <trkpt lat="48.0251" lon="-4.53065">
        <ele>36</ele>
        <time>2022-06-03T20:01:16.517Z</time>
      </trkpt>
      <trkpt lat="48.02505" lon="-4.53063">
        <ele>36</ele>
        <time>2022-06-03T20:01:26.558Z</time>
      </trkpt>
      <trkpt lat="48.02504" lon="-4.5306">
        <ele>36</ele>
        <time>2022-06-03T20:01:31.516Z</time>
      </trkpt>
      <trkpt lat="48.02502" lon="-4.5306">
        <ele>36</ele>
        <time>2022-06-03T20:01:35.526Z</time>
      </trkpt>
      <trkpt lat="48.025" lon="-4.53061">
        <ele>36</ele>
        <time>2022-06-03T20:01:40.478Z</time>
      </trkpt>
      <trkpt lat="48.02498" lon="-4.5306">
        <ele>36</ele>
        <time>2022-06-03T20:01:44.517Z</time>
      </trkpt>
      <trkpt lat="48.02493" lon="-4.53057">
        <ele>36</ele>
        <time>2022-06-03T20:01:49.495Z</time>
      </trkpt>
      <trkpt lat="48.02491" lon="-4.53055">
        <ele>36</ele>
        <time>2022-06-03T20:01:53.532Z</time>
      </trkpt>
      <trkpt lat="48.02487" lon="-4.53055">
        <ele>36</ele>
        <time>2022-06-03T20:01:58.536Z</time>
      </trkpt>
      <trkpt lat="48.02484" lon="-4.53051">
        <ele>40</ele>
        <time>2022-06-03T20:02:03.525Z</time>
      </trkpt>
      <trkpt lat="48.02482" lon="-4.53047">
        <ele>40</ele>
        <time>2022-06-03T20:02:08.510Z</time>
      </trkpt>
      <trkpt lat="48.0248" lon="-4.53044">
        <ele>40</ele>
        <time>2022-06-03T20:02:13.527Z</time>
      </trkpt>
      <trkpt lat="48.02478" lon="-4.5304">
        <ele>40</ele>
        <time>2022-06-03T20:02:18.523Z</time>
      </trkpt>
      <trkpt lat="48.02476" lon="-4.53035">
        <ele>40</ele>
        <time>2022-06-03T20:02:23.528Z</time>
      </trkpt>
      <trkpt lat="48.02474" lon="-4.53032">
        <ele>40</ele>
        <time>2022-06-03T20:02:28.545Z</time>
      </trkpt>
      <trkpt lat="48.02472" lon="-4.53026">
        <ele>40</ele>
        <time>2022-06-03T20:02:33.534Z</time>
      </trkpt>
      <trkpt lat="48.02469" lon="-4.53022">
        <ele>40</ele>
        <time>2022-06-03T20:02:38.537Z</time>
      </trkpt>
      <trkpt lat="48.02467" lon="-4.53018">
        <ele>40</ele>
        <time>2022-06-03T20:02:42.514Z</time>
      </trkpt>
      <trkpt lat="48.02465" lon="-4.53013">
        <ele>40</ele>
        <time>2022-06-03T20:02:47.544Z</time>
      </trkpt>
      <trkpt lat="48.02462" lon="-4.53006">
        <ele>40</ele>
        <time>2022-06-03T20:02:52.528Z</time>
      </trkpt>
      <trkpt lat="48.02461" lon="-4.53002">
        <ele>40</ele>
        <time>2022-06-03T20:02:56.553Z</time>
      </trkpt>
      <trkpt lat="48.02459" lon="-4.52997">
        <ele>40</ele>
        <time>2022-06-03T20:03:01.506Z</time>
      </trkpt>
      <trkpt lat="48.02454" lon="-4.52992">
        <ele>41</ele>
        <time>2022-06-03T20:03:06.563Z</time>
      </trkpt>
      <trkpt lat="48.0245" lon="-4.52988">
        <ele>41</ele>
        <time>2022-06-03T20:03:11.519Z</time>
      </trkpt>
      <trkpt lat="48.02448" lon="-4.52984">
        <ele>41</ele>
        <time>2022-06-03T20:03:15.538Z</time>
      </trkpt>
      <trkpt lat="48.02446" lon="-4.52978">
        <ele>41</ele>
        <time>2022-06-03T20:03:20.525Z</time>
      </trkpt>
      <trkpt lat="48.02443" lon="-4.52973">
        <ele>41</ele>
        <time>2022-06-03T20:03:25.527Z</time>
      </trkpt>
      <trkpt lat="48.02441" lon="-4.52967">
        <ele>41</ele>
        <time>2022-06-03T20:03:30.539Z</time>
      </trkpt>
      <trkpt lat="48.0244" lon="-4.52962">
        <ele>41</ele>
        <time>2022-06-03T20:03:35.515Z</time>
      </trkpt>
      <trkpt lat="48.02438" lon="-4.52958">
        <ele>41</ele>
        <time>2022-06-03T20:03:39.524Z</time>
      </trkpt>
      <trkpt lat="48.02435" lon="-4.52954">
        <ele>41</ele>
        <time>2022-06-03T20:03:43.547Z</time>
      </trkpt>
      <trkpt lat="48.02432" lon="-4.52948">
        <ele>41</ele>
        <time>2022-06-03T20:03:48.543Z</time>
      </trkpt>
      <trkpt lat="48.0243" lon="-4.52944">
        <ele>41</ele>
        <time>2022-06-03T20:03:53.539Z</time>
      </trkpt>
      <trkpt lat="48.02428" lon="-4.5294">
        <ele>41</ele>
        <time>2022-06-03T20:03:57.552Z</time>
      </trkpt>
      <trkpt lat="48.02426" lon="-4.52935">
        <ele>41</ele>
        <time>2022-06-03T20:04:02.540Z</time>
      </trkpt>
      <trkpt lat="48.02423" lon="-4.52931">
        <ele>41</ele>
        <time>2022-06-03T20:04:06.535Z</time>
      </trkpt>
      <trkpt lat="48.02421" lon="-4.52925">
        <ele>41</ele>
        <time>2022-06-03T20:04:11.542Z</time>
      </trkpt>
      <trkpt lat="48.02419" lon="-4.52919">
        <ele>41</ele>
        <time>2022-06-03T20:04:16.538Z</time>
      </trkpt>
      <trkpt lat="48.02421" lon="-4.52913">
        <ele>41</ele>
        <time>2022-06-03T20:04:20.558Z</time>
      </trkpt>
      <trkpt lat="48.02424" lon="-4.52909">
        <ele>41</ele>
        <time>2022-06-03T20:04:25.545Z</time>
      </trkpt>
      <trkpt lat="48.02427" lon="-4.52903">
        <ele>41</ele>
        <time>2022-06-03T20:04:30.547Z</time>
      </trkpt>
      <trkpt lat="48.02431" lon="-4.52898">
        <ele>42</ele>
        <time>2022-06-03T20:04:35.540Z</time>
      </trkpt>
      <trkpt lat="48.02434" lon="-4.52893">
        <ele>42</ele>
        <time>2022-06-03T20:04:40.534Z</time>
      </trkpt>
      <trkpt lat="48.02437" lon="-4.52888">
        <ele>42</ele>
        <time>2022-06-03T20:04:45.532Z</time>
      </trkpt>
      <trkpt lat="48.0244" lon="-4.52883">
        <ele>42</ele>
        <time>2022-06-03T20:04:50.534Z</time>
      </trkpt>
      <trkpt lat="48.02442" lon="-4.52877">
        <ele>42</ele>
        <time>2022-06-03T20:04:55.538Z</time>
      </trkpt>
      <trkpt lat="48.02446" lon="-4.52874">
        <ele>43</ele>
        <time>2022-06-03T20:05:00.543Z</time>
      </trkpt>
      <trkpt lat="48.02449" lon="-4.52869">
        <ele>43</ele>
        <time>2022-06-03T20:05:05.530Z</time>
      </trkpt>
      <trkpt lat="48.02452" lon="-4.52866">
        <ele>43</ele>
        <time>2022-06-03T20:05:10.535Z</time>
      </trkpt>
      <trkpt lat="48.02456" lon="-4.52863">
        <ele>43</ele>
        <time>2022-06-03T20:05:15.549Z</time>
      </trkpt>
      <trkpt lat="48.02458" lon="-4.5286">
        <ele>43</ele>
        <time>2022-06-03T20:05:20.544Z</time>
      </trkpt>
      <trkpt lat="48.02462" lon="-4.52856">
        <ele>42</ele>
        <time>2022-06-03T20:05:25.523Z</time>
      </trkpt>
      <trkpt lat="48.02464" lon="-4.52854">
        <ele>42</ele>
        <time>2022-06-03T20:05:29.532Z</time>
      </trkpt>
      <trkpt lat="48.02467" lon="-4.5285">
        <ele>42</ele>
        <time>2022-06-03T20:05:34.545Z</time>
      </trkpt>
      <trkpt lat="48.0247" lon="-4.52848">
        <ele>42</ele>
        <time>2022-06-03T20:05:39.536Z</time>
      </trkpt>
      <trkpt lat="48.02473" lon="-4.52844">
        <ele>43</ele>
        <time>2022-06-03T20:05:44.537Z</time>
      </trkpt>
      <trkpt lat="48.02477" lon="-4.5284">
        <ele>43</ele>
        <time>2022-06-03T20:05:49.529Z</time>
      </trkpt>
      <trkpt lat="48.0248" lon="-4.52836">
        <ele>43</ele>
        <time>2022-06-03T20:05:53.547Z</time>
      </trkpt>
      <trkpt lat="48.02483" lon="-4.52832">
        <ele>43</ele>
        <time>2022-06-03T20:05:58.519Z</time>
      </trkpt>
      <trkpt lat="48.02485" lon="-4.52828">
        <ele>43</ele>
        <time>2022-06-03T20:06:02.534Z</time>
      </trkpt>
      <trkpt lat="48.02488" lon="-4.52823">
        <ele>43</ele>
        <time>2022-06-03T20:06:07.526Z</time>
      </trkpt>
      <trkpt lat="48.02492" lon="-4.52819">
        <ele>44</ele>
        <time>2022-06-03T20:06:12.541Z</time>
      </trkpt>
      <trkpt lat="48.02497" lon="-4.52827">
        <ele>43</ele>
        <time>2022-06-03T20:13:10.512Z</time>
      </trkpt>
      <trkpt lat="48.02497" lon="-4.52827">
        <ele>43</ele>
        <time>2022-06-03T20:13:15.504Z</time>
      </trkpt>
      <trkpt lat="48.02497" lon="-4.52827">
        <ele>43</ele>
        <time>2022-06-03T20:13:20.525Z</time>
      </trkpt>
      <trkpt lat="48.02497" lon="-4.52827">
        <ele>43</ele>
        <time>2022-06-03T20:13:24.526Z</time>
      </trkpt>
      <trkpt lat="48.02511" lon="-4.52838">
        <ele>43</ele>
        <time>2022-06-03T20:16:03.482Z</time>
      </trkpt>
      <trkpt lat="48.0249" lon="-4.52851">
        <ele>42</ele>
        <time>2022-06-03T20:16:08.473Z</time>
      </trkpt>
      <trkpt lat="48.02482" lon="-4.52847">
        <ele>43</ele>
        <time>2022-06-03T20:16:12.495Z</time>
      </trkpt>
      <trkpt lat="48.02482" lon="-4.52845">
        <ele>43</ele>
        <time>2022-06-03T20:16:17.494Z</time>
      </trkpt>
      <trkpt lat="48.02482" lon="-4.52843">
        <ele>43</ele>
        <time>2022-06-03T20:16:22.494Z</time>
      </trkpt>
      <trkpt lat="48.0249" lon="-4.52832">
        <ele>43</ele>
        <time>2022-06-03T20:20:14.511Z</time>
      </trkpt>
      <trkpt lat="48.02492" lon="-4.52833">
        <ele>43</ele>
        <time>2022-06-03T20:20:18.544Z</time>
      </trkpt>
      <trkpt lat="48.02492" lon="-4.52834">
        <ele>43</ele>
        <time>2022-06-03T20:20:23.489Z</time>
      </trkpt>
      <trkpt lat="48.02493" lon="-4.52833">
        <ele>43</ele>
        <time>2022-06-03T20:20:28.501Z</time>
      </trkpt>
      <trkpt lat="48.02494" lon="-4.52832">
        <ele>43</ele>
        <time>2022-06-03T20:20:33.484Z</time>
      </trkpt>
      <trkpt lat="48.02501" lon="-4.52829">
        <ele>43</ele>
        <time>2022-06-03T20:26:55.505Z</time>
      </trkpt>
      <trkpt lat="48.02501" lon="-4.52829">
        <ele>43</ele>
        <time>2022-06-03T20:27:00.507Z</time>
      </trkpt>
      <trkpt lat="48.02501" lon="-4.52828">
        <ele>43</ele>
        <time>2022-06-03T20:27:04.514Z</time>
      </trkpt>
      <trkpt lat="48.02501" lon="-4.52828">
        <ele>43</ele>
        <time>2022-06-03T20:27:09.498Z</time>
      </trkpt>
      <trkpt lat="48.02503" lon="-4.5284">
        <ele>43</ele>
        <time>2022-06-03T20:27:55.495Z</time>
      </trkpt>
    </trkseg>
  </trk>
</gpx>